<?xml version="1.0" encoding="UTF-8" standalone="no" ?>
<gpx xmlns="http://www.topografix.com/GPX/1/1" xmlns:xsi="http://www.w3.org/2001/XMLSchema-instance" xsi:schemaLocation="http://www.topografix.com/GPX/1/1 http://www.topografix.com/GPX/1/1/gpx.xsd" version="1.1" creator="VisuGPX - https://www.visugpx.com">
  <metadata>
    <name>Sos et  les Sociates 20-09-2022</name>
  </metadata>
  <trk>
    <name><![CDATA[T2022-09-20-17-58]]></name>
    <extensions>
      <line xmlns="http://www.topografix.com/GPX/gpx_style/0/2">
        <color>0000FF</color>
        <width>4</width>
      </line>
    </extensions>
    <trkseg>
      <trkpt lat="44.04479" lon="0.14277">
        <ele>102</ele>
        <time>2022-09-20T13:22:51Z</time>
      </trkpt>
      <trkpt lat="44.04479" lon="0.14283">
        <ele>102.6</ele>
        <time>2022-09-20T13:24:52Z</time>
      </trkpt>
      <trkpt lat="44.04479" lon="0.14289">
        <ele>103.3</ele>
        <time>2022-09-20T13:24:59Z</time>
      </trkpt>
      <trkpt lat="44.04481" lon="0.14298">
        <ele>105.1</ele>
        <time>2022-09-20T13:28:34Z</time>
      </trkpt>
      <trkpt lat="44.04483" lon="0.14303">
        <ele>105.9</ele>
        <time>2022-09-20T13:28:38Z</time>
      </trkpt>
      <trkpt lat="44.04486" lon="0.14312">
        <ele>107.3</ele>
        <time>2022-09-20T13:28:59Z</time>
      </trkpt>
      <trkpt lat="44.04487" lon="0.14318">
        <ele>107.6</ele>
        <time>2022-09-20T13:29:04Z</time>
      </trkpt>
      <trkpt lat="44.04492" lon="0.14317">
        <ele>108</ele>
        <time>2022-09-20T13:29:14Z</time>
      </trkpt>
      <trkpt lat="44.04496" lon="0.14313">
        <ele>108.2</ele>
        <time>2022-09-20T13:29:17Z</time>
      </trkpt>
      <trkpt lat="44.04499" lon="0.14308">
        <ele>108.3</ele>
        <time>2022-09-20T13:29:21Z</time>
      </trkpt>
      <trkpt lat="44.04503" lon="0.143">
        <ele>108.1</ele>
        <time>2022-09-20T13:29:28Z</time>
      </trkpt>
      <trkpt lat="44.04505" lon="0.14295">
        <ele>108.1</ele>
        <time>2022-09-20T13:29:34Z</time>
      </trkpt>
      <trkpt lat="44.04506" lon="0.14288">
        <ele>108.5</ele>
        <time>2022-09-20T13:29:42Z</time>
      </trkpt>
      <trkpt lat="44.04507" lon="0.14281">
        <ele>108.7</ele>
        <time>2022-09-20T13:29:45Z</time>
      </trkpt>
      <trkpt lat="44.04505" lon="0.14275">
        <ele>108.7</ele>
        <time>2022-09-20T13:29:49Z</time>
      </trkpt>
      <trkpt lat="44.04501" lon="0.14267">
        <ele>108.3</ele>
        <time>2022-09-20T13:29:56Z</time>
      </trkpt>
      <trkpt lat="44.04498" lon="0.14261">
        <ele>108</ele>
        <time>2022-09-20T13:29:59Z</time>
      </trkpt>
      <trkpt lat="44.04495" lon="0.14254">
        <ele>107.4</ele>
        <time>2022-09-20T13:30:03Z</time>
      </trkpt>
      <trkpt lat="44.04493" lon="0.14248">
        <ele>106.6</ele>
        <time>2022-09-20T13:30:07Z</time>
      </trkpt>
      <trkpt lat="44.04488" lon="0.14237">
        <ele>105.4</ele>
        <time>2022-09-20T13:30:18Z</time>
      </trkpt>
      <trkpt lat="44.04485" lon="0.1423">
        <ele>105</ele>
        <time>2022-09-20T13:30:21Z</time>
      </trkpt>
      <trkpt lat="44.04481" lon="0.14226">
        <ele>104.2</ele>
        <time>2022-09-20T13:30:25Z</time>
      </trkpt>
      <trkpt lat="44.04476" lon="0.14222">
        <ele>102.9</ele>
        <time>2022-09-20T13:30:30Z</time>
      </trkpt>
      <trkpt lat="44.04472" lon="0.14221">
        <ele>101.3</ele>
        <time>2022-09-20T13:30:34Z</time>
      </trkpt>
      <trkpt lat="44.04467" lon="0.14219">
        <ele>99.6</ele>
        <time>2022-09-20T13:30:38Z</time>
      </trkpt>
      <trkpt lat="44.04461" lon="0.14218">
        <ele>98.3</ele>
        <time>2022-09-20T13:30:42Z</time>
      </trkpt>
      <trkpt lat="44.04456" lon="0.14219">
        <ele>97.1</ele>
        <time>2022-09-20T13:30:46Z</time>
      </trkpt>
      <trkpt lat="44.04451" lon="0.1422">
        <ele>96.3</ele>
        <time>2022-09-20T13:30:50Z</time>
      </trkpt>
      <trkpt lat="44.04446" lon="0.14221">
        <ele>95.9</ele>
        <time>2022-09-20T13:30:54Z</time>
      </trkpt>
      <trkpt lat="44.04441" lon="0.1422">
        <ele>96.3</ele>
        <time>2022-09-20T13:30:58Z</time>
      </trkpt>
      <trkpt lat="44.04436" lon="0.14221">
        <ele>97.2</ele>
        <time>2022-09-20T13:31:02Z</time>
      </trkpt>
      <trkpt lat="44.0443" lon="0.14222">
        <ele>98.3</ele>
        <time>2022-09-20T13:31:07Z</time>
      </trkpt>
      <trkpt lat="44.04426" lon="0.14223">
        <ele>99.2</ele>
        <time>2022-09-20T13:31:11Z</time>
      </trkpt>
      <trkpt lat="44.0442" lon="0.14224">
        <ele>100.3</ele>
        <time>2022-09-20T13:31:16Z</time>
      </trkpt>
      <trkpt lat="44.04416" lon="0.14224">
        <ele>100.6</ele>
        <time>2022-09-20T13:31:21Z</time>
      </trkpt>
      <trkpt lat="44.0441" lon="0.14225">
        <ele>100.7</ele>
        <time>2022-09-20T13:31:26Z</time>
      </trkpt>
      <trkpt lat="44.04406" lon="0.14226">
        <ele>100.8</ele>
        <time>2022-09-20T13:31:30Z</time>
      </trkpt>
      <trkpt lat="44.044" lon="0.14228">
        <ele>101.1</ele>
        <time>2022-09-20T13:31:34Z</time>
      </trkpt>
      <trkpt lat="44.04394" lon="0.1423">
        <ele>101.7</ele>
        <time>2022-09-20T13:31:38Z</time>
      </trkpt>
      <trkpt lat="44.04389" lon="0.1423">
        <ele>102.6</ele>
        <time>2022-09-20T13:31:42Z</time>
      </trkpt>
      <trkpt lat="44.04384" lon="0.14229">
        <ele>103.5</ele>
        <time>2022-09-20T13:31:47Z</time>
      </trkpt>
      <trkpt lat="44.04379" lon="0.14228">
        <ele>104.3</ele>
        <time>2022-09-20T13:31:51Z</time>
      </trkpt>
      <trkpt lat="44.04374" lon="0.14227">
        <ele>104.8</ele>
        <time>2022-09-20T13:31:55Z</time>
      </trkpt>
      <trkpt lat="44.04369" lon="0.14229">
        <ele>105</ele>
        <time>2022-09-20T13:31:59Z</time>
      </trkpt>
      <trkpt lat="44.04364" lon="0.1423">
        <ele>105.1</ele>
        <time>2022-09-20T13:32:04Z</time>
      </trkpt>
      <trkpt lat="44.04359" lon="0.14229">
        <ele>105.1</ele>
        <time>2022-09-20T13:32:09Z</time>
      </trkpt>
      <trkpt lat="44.04353" lon="0.1423">
        <ele>104.7</ele>
        <time>2022-09-20T13:32:14Z</time>
      </trkpt>
      <trkpt lat="44.04349" lon="0.14232">
        <ele>104.3</ele>
        <time>2022-09-20T13:32:18Z</time>
      </trkpt>
      <trkpt lat="44.04344" lon="0.14233">
        <ele>104</ele>
        <time>2022-09-20T13:32:21Z</time>
      </trkpt>
      <trkpt lat="44.04339" lon="0.14236">
        <ele>103.3</ele>
        <time>2022-09-20T13:32:25Z</time>
      </trkpt>
      <trkpt lat="44.04335" lon="0.1424">
        <ele>102.4</ele>
        <time>2022-09-20T13:32:28Z</time>
      </trkpt>
      <trkpt lat="44.04331" lon="0.14243">
        <ele>101.6</ele>
        <time>2022-09-20T13:32:31Z</time>
      </trkpt>
      <trkpt lat="44.04327" lon="0.14246">
        <ele>100.8</ele>
        <time>2022-09-20T13:32:34Z</time>
      </trkpt>
      <trkpt lat="44.04321" lon="0.14247">
        <ele>99.7</ele>
        <time>2022-09-20T13:32:38Z</time>
      </trkpt>
      <trkpt lat="44.04316" lon="0.14247">
        <ele>98.5</ele>
        <time>2022-09-20T13:32:43Z</time>
      </trkpt>
      <trkpt lat="44.04312" lon="0.14248">
        <ele>97.3</ele>
        <time>2022-09-20T13:32:51Z</time>
      </trkpt>
      <trkpt lat="44.04305" lon="0.14248">
        <ele>97.1</ele>
        <time>2022-09-20T13:32:54Z</time>
      </trkpt>
      <trkpt lat="44.043" lon="0.14249">
        <ele>96.7</ele>
        <time>2022-09-20T13:32:58Z</time>
      </trkpt>
      <trkpt lat="44.04294" lon="0.1425">
        <ele>96.8</ele>
        <time>2022-09-20T13:33:02Z</time>
      </trkpt>
      <trkpt lat="44.04289" lon="0.1425">
        <ele>96.9</ele>
        <time>2022-09-20T13:33:06Z</time>
      </trkpt>
      <trkpt lat="44.04283" lon="0.14249">
        <ele>97.8</ele>
        <time>2022-09-20T13:33:10Z</time>
      </trkpt>
      <trkpt lat="44.04278" lon="0.14248">
        <ele>99.1</ele>
        <time>2022-09-20T13:33:14Z</time>
      </trkpt>
      <trkpt lat="44.04273" lon="0.14248">
        <ele>100.4</ele>
        <time>2022-09-20T13:33:19Z</time>
      </trkpt>
      <trkpt lat="44.04268" lon="0.14246">
        <ele>101.1</ele>
        <time>2022-09-20T13:33:23Z</time>
      </trkpt>
      <trkpt lat="44.04265" lon="0.14241">
        <ele>101.9</ele>
        <time>2022-09-20T13:33:28Z</time>
      </trkpt>
      <trkpt lat="44.04263" lon="0.14234">
        <ele>102</ele>
        <time>2022-09-20T13:33:31Z</time>
      </trkpt>
      <trkpt lat="44.04261" lon="0.14226">
        <ele>102.3</ele>
        <time>2022-09-20T13:33:35Z</time>
      </trkpt>
      <trkpt lat="44.0426" lon="0.14219">
        <ele>103.4</ele>
        <time>2022-09-20T13:33:39Z</time>
      </trkpt>
      <trkpt lat="44.0426" lon="0.14211">
        <ele>104.9</ele>
        <time>2022-09-20T13:33:43Z</time>
      </trkpt>
      <trkpt lat="44.04259" lon="0.14204">
        <ele>106.4</ele>
        <time>2022-09-20T13:33:47Z</time>
      </trkpt>
      <trkpt lat="44.04259" lon="0.14193">
        <ele>108.8</ele>
        <time>2022-09-20T13:33:59Z</time>
      </trkpt>
      <trkpt lat="44.04259" lon="0.14185">
        <ele>109.8</ele>
        <time>2022-09-20T13:34:02Z</time>
      </trkpt>
      <trkpt lat="44.04258" lon="0.14177">
        <ele>111.5</ele>
        <time>2022-09-20T13:34:11Z</time>
      </trkpt>
      <trkpt lat="44.04255" lon="0.1417">
        <ele>112.6</ele>
        <time>2022-09-20T13:34:14Z</time>
      </trkpt>
      <trkpt lat="44.04252" lon="0.14163">
        <ele>114.1</ele>
        <time>2022-09-20T13:34:18Z</time>
      </trkpt>
      <trkpt lat="44.0425" lon="0.14155">
        <ele>115.2</ele>
        <time>2022-09-20T13:34:27Z</time>
      </trkpt>
      <trkpt lat="44.04247" lon="0.14146">
        <ele>115.4</ele>
        <time>2022-09-20T13:34:30Z</time>
      </trkpt>
      <trkpt lat="44.04246" lon="0.1414">
        <ele>115.8</ele>
        <time>2022-09-20T13:34:33Z</time>
      </trkpt>
      <trkpt lat="44.04244" lon="0.14129">
        <ele>116</ele>
        <time>2022-09-20T13:34:44Z</time>
      </trkpt>
      <trkpt lat="44.04243" lon="0.14122">
        <ele>115.6</ele>
        <time>2022-09-20T13:34:47Z</time>
      </trkpt>
      <trkpt lat="44.04242" lon="0.14113">
        <ele>114.5</ele>
        <time>2022-09-20T13:35:00Z</time>
      </trkpt>
      <trkpt lat="44.04242" lon="0.14106">
        <ele>114.3</ele>
        <time>2022-09-20T13:35:03Z</time>
      </trkpt>
      <trkpt lat="44.04242" lon="0.14098">
        <ele>113.5</ele>
        <time>2022-09-20T13:35:08Z</time>
      </trkpt>
      <trkpt lat="44.0424" lon="0.14092">
        <ele>112.7</ele>
        <time>2022-09-20T13:35:11Z</time>
      </trkpt>
      <trkpt lat="44.04238" lon="0.14086">
        <ele>111.7</ele>
        <time>2022-09-20T13:35:15Z</time>
      </trkpt>
      <trkpt lat="44.04239" lon="0.14077">
        <ele>108.9</ele>
        <time>2022-09-20T13:35:27Z</time>
      </trkpt>
      <trkpt lat="44.04243" lon="0.14068">
        <ele>107.7</ele>
        <time>2022-09-20T13:35:30Z</time>
      </trkpt>
      <trkpt lat="44.04248" lon="0.14065">
        <ele>106.8</ele>
        <time>2022-09-20T13:35:33Z</time>
      </trkpt>
      <trkpt lat="44.04244" lon="0.14059">
        <ele>102.5</ele>
        <time>2022-09-20T13:35:47Z</time>
      </trkpt>
      <trkpt lat="44.04242" lon="0.14053">
        <ele>100.1</ele>
        <time>2022-09-20T13:35:52Z</time>
      </trkpt>
      <trkpt lat="44.04241" lon="0.14046">
        <ele>98.6</ele>
        <time>2022-09-20T13:35:58Z</time>
      </trkpt>
      <trkpt lat="44.04241" lon="0.14037">
        <ele>98.6</ele>
        <time>2022-09-20T13:36:01Z</time>
      </trkpt>
      <trkpt lat="44.04239" lon="0.14027">
        <ele>100.2</ele>
        <time>2022-09-20T13:36:12Z</time>
      </trkpt>
      <trkpt lat="44.04236" lon="0.14021">
        <ele>101.6</ele>
        <time>2022-09-20T13:36:15Z</time>
      </trkpt>
      <trkpt lat="44.04239" lon="0.14019">
        <ele>108.1</ele>
        <time>2022-09-20T13:37:44Z</time>
      </trkpt>
      <trkpt lat="44.04244" lon="0.14019">
        <ele>109.3</ele>
        <time>2022-09-20T13:37:49Z</time>
      </trkpt>
      <trkpt lat="44.04238" lon="0.14021">
        <ele>112.4</ele>
        <time>2022-09-20T13:40:42Z</time>
      </trkpt>
      <trkpt lat="44.04243" lon="0.1402">
        <ele>116.1</ele>
        <time>2022-09-20T13:41:53Z</time>
      </trkpt>
      <trkpt lat="44.04243" lon="0.14012">
        <ele>117.3</ele>
        <time>2022-09-20T13:43:33Z</time>
      </trkpt>
      <trkpt lat="44.04243" lon="0.14006">
        <ele>118.1</ele>
        <time>2022-09-20T13:43:37Z</time>
      </trkpt>
      <trkpt lat="44.04244" lon="0.13999">
        <ele>119</ele>
        <time>2022-09-20T13:43:41Z</time>
      </trkpt>
      <trkpt lat="44.04245" lon="0.13992">
        <ele>119.9</ele>
        <time>2022-09-20T13:43:45Z</time>
      </trkpt>
      <trkpt lat="44.04246" lon="0.13985">
        <ele>120.5</ele>
        <time>2022-09-20T13:43:51Z</time>
      </trkpt>
      <trkpt lat="44.04248" lon="0.13978">
        <ele>121.2</ele>
        <time>2022-09-20T13:43:55Z</time>
      </trkpt>
      <trkpt lat="44.04251" lon="0.13971">
        <ele>122.4</ele>
        <time>2022-09-20T13:44:08Z</time>
      </trkpt>
      <trkpt lat="44.04257" lon="0.13969">
        <ele>122.7</ele>
        <time>2022-09-20T13:44:12Z</time>
      </trkpt>
      <trkpt lat="44.04262" lon="0.13968">
        <ele>122.8</ele>
        <time>2022-09-20T13:44:15Z</time>
      </trkpt>
      <trkpt lat="44.04269" lon="0.13969">
        <ele>123.2</ele>
        <time>2022-09-20T13:44:29Z</time>
      </trkpt>
      <trkpt lat="44.04274" lon="0.13973">
        <ele>122.6</ele>
        <time>2022-09-20T13:44:33Z</time>
      </trkpt>
      <trkpt lat="44.04279" lon="0.13974">
        <ele>121.8</ele>
        <time>2022-09-20T13:44:39Z</time>
      </trkpt>
      <trkpt lat="44.04286" lon="0.13972">
        <ele>120.9</ele>
        <time>2022-09-20T13:44:42Z</time>
      </trkpt>
      <trkpt lat="44.0429" lon="0.13973">
        <ele>119.8</ele>
        <time>2022-09-20T13:44:45Z</time>
      </trkpt>
      <trkpt lat="44.04294" lon="0.13977">
        <ele>118.9</ele>
        <time>2022-09-20T13:44:48Z</time>
      </trkpt>
      <trkpt lat="44.04297" lon="0.13983">
        <ele>118.3</ele>
        <time>2022-09-20T13:44:51Z</time>
      </trkpt>
      <trkpt lat="44.04302" lon="0.13986">
        <ele>117.1</ele>
        <time>2022-09-20T13:44:56Z</time>
      </trkpt>
      <trkpt lat="44.04303" lon="0.13993">
        <ele>116.3</ele>
        <time>2022-09-20T13:45:01Z</time>
      </trkpt>
      <trkpt lat="44.04303" lon="0.14">
        <ele>116.1</ele>
        <time>2022-09-20T13:45:05Z</time>
      </trkpt>
      <trkpt lat="44.04302" lon="0.14006">
        <ele>116.4</ele>
        <time>2022-09-20T13:45:09Z</time>
      </trkpt>
      <trkpt lat="44.04302" lon="0.14013">
        <ele>116.8</ele>
        <time>2022-09-20T13:45:13Z</time>
      </trkpt>
      <trkpt lat="44.04302" lon="0.14021">
        <ele>117</ele>
        <time>2022-09-20T13:45:18Z</time>
      </trkpt>
      <trkpt lat="44.04301" lon="0.14028">
        <ele>116.4</ele>
        <time>2022-09-20T13:45:24Z</time>
      </trkpt>
      <trkpt lat="44.043" lon="0.14034">
        <ele>115.8</ele>
        <time>2022-09-20T13:45:27Z</time>
      </trkpt>
      <trkpt lat="44.043" lon="0.14041">
        <ele>114.7</ele>
        <time>2022-09-20T13:45:31Z</time>
      </trkpt>
      <trkpt lat="44.04302" lon="0.14046">
        <ele>114.6</ele>
        <time>2022-09-20T13:45:36Z</time>
      </trkpt>
      <trkpt lat="44.04308" lon="0.14048">
        <ele>114.1</ele>
        <time>2022-09-20T13:45:45Z</time>
      </trkpt>
      <trkpt lat="44.04315" lon="0.14051">
        <ele>112.8</ele>
        <time>2022-09-20T13:45:56Z</time>
      </trkpt>
      <trkpt lat="44.04321" lon="0.14053">
        <ele>112.5</ele>
        <time>2022-09-20T13:45:59Z</time>
      </trkpt>
      <trkpt lat="44.04327" lon="0.14054">
        <ele>112.3</ele>
        <time>2022-09-20T13:46:02Z</time>
      </trkpt>
      <trkpt lat="44.04332" lon="0.14054">
        <ele>112</ele>
        <time>2022-09-20T13:46:06Z</time>
      </trkpt>
      <trkpt lat="44.04337" lon="0.14055">
        <ele>112</ele>
        <time>2022-09-20T13:46:12Z</time>
      </trkpt>
      <trkpt lat="44.04344" lon="0.14056">
        <ele>112.1</ele>
        <time>2022-09-20T13:46:15Z</time>
      </trkpt>
      <trkpt lat="44.04349" lon="0.14057">
        <ele>112.2</ele>
        <time>2022-09-20T13:46:18Z</time>
      </trkpt>
      <trkpt lat="44.04354" lon="0.14059">
        <ele>112.3</ele>
        <time>2022-09-20T13:46:21Z</time>
      </trkpt>
      <trkpt lat="44.04359" lon="0.1406">
        <ele>112.8</ele>
        <time>2022-09-20T13:46:24Z</time>
      </trkpt>
      <trkpt lat="44.04364" lon="0.14062">
        <ele>113.2</ele>
        <time>2022-09-20T13:46:28Z</time>
      </trkpt>
      <trkpt lat="44.04369" lon="0.14063">
        <ele>113.4</ele>
        <time>2022-09-20T13:46:32Z</time>
      </trkpt>
      <trkpt lat="44.04375" lon="0.14063">
        <ele>113.8</ele>
        <time>2022-09-20T13:46:36Z</time>
      </trkpt>
      <trkpt lat="44.04381" lon="0.14065">
        <ele>114.4</ele>
        <time>2022-09-20T13:46:40Z</time>
      </trkpt>
      <trkpt lat="44.04386" lon="0.14068">
        <ele>114.9</ele>
        <time>2022-09-20T13:46:44Z</time>
      </trkpt>
      <trkpt lat="44.04391" lon="0.14068">
        <ele>115.2</ele>
        <time>2022-09-20T13:46:48Z</time>
      </trkpt>
      <trkpt lat="44.04396" lon="0.14068">
        <ele>114.2</ele>
        <time>2022-09-20T13:46:53Z</time>
      </trkpt>
      <trkpt lat="44.04401" lon="0.14067">
        <ele>113.4</ele>
        <time>2022-09-20T13:46:57Z</time>
      </trkpt>
      <trkpt lat="44.04406" lon="0.14067">
        <ele>112.6</ele>
        <time>2022-09-20T13:47:01Z</time>
      </trkpt>
      <trkpt lat="44.04412" lon="0.14068">
        <ele>112.2</ele>
        <time>2022-09-20T13:47:05Z</time>
      </trkpt>
      <trkpt lat="44.04416" lon="0.14069">
        <ele>112.1</ele>
        <time>2022-09-20T13:47:09Z</time>
      </trkpt>
      <trkpt lat="44.04424" lon="0.14072">
        <ele>111.6</ele>
        <time>2022-09-20T13:47:17Z</time>
      </trkpt>
      <trkpt lat="44.04429" lon="0.14072">
        <ele>110.9</ele>
        <time>2022-09-20T13:47:20Z</time>
      </trkpt>
      <trkpt lat="44.04433" lon="0.14073">
        <ele>110.1</ele>
        <time>2022-09-20T13:47:24Z</time>
      </trkpt>
      <trkpt lat="44.04438" lon="0.14073">
        <ele>108.9</ele>
        <time>2022-09-20T13:47:30Z</time>
      </trkpt>
      <trkpt lat="44.04443" lon="0.14071">
        <ele>107.2</ele>
        <time>2022-09-20T13:47:36Z</time>
      </trkpt>
      <trkpt lat="44.04446" lon="0.14067">
        <ele>106</ele>
        <time>2022-09-20T13:47:40Z</time>
      </trkpt>
      <trkpt lat="44.04447" lon="0.14058">
        <ele>104.7</ele>
        <time>2022-09-20T13:47:50Z</time>
      </trkpt>
      <trkpt lat="44.04446" lon="0.1405">
        <ele>104.5</ele>
        <time>2022-09-20T13:47:53Z</time>
      </trkpt>
      <trkpt lat="44.04444" lon="0.14043">
        <ele>103.9</ele>
        <time>2022-09-20T13:47:57Z</time>
      </trkpt>
      <trkpt lat="44.04441" lon="0.14037">
        <ele>103.2</ele>
        <time>2022-09-20T13:48:01Z</time>
      </trkpt>
      <trkpt lat="44.04438" lon="0.14031">
        <ele>102.5</ele>
        <time>2022-09-20T13:48:05Z</time>
      </trkpt>
      <trkpt lat="44.04434" lon="0.14025">
        <ele>101.6</ele>
        <time>2022-09-20T13:48:09Z</time>
      </trkpt>
      <trkpt lat="44.04431" lon="0.14019">
        <ele>100.8</ele>
        <time>2022-09-20T13:48:13Z</time>
      </trkpt>
      <trkpt lat="44.0443" lon="0.14012">
        <ele>99.7</ele>
        <time>2022-09-20T13:48:17Z</time>
      </trkpt>
      <trkpt lat="44.04428" lon="0.14006">
        <ele>98.8</ele>
        <time>2022-09-20T13:48:21Z</time>
      </trkpt>
      <trkpt lat="44.04426" lon="0.14">
        <ele>97.9</ele>
        <time>2022-09-20T13:48:25Z</time>
      </trkpt>
      <trkpt lat="44.04425" lon="0.13993">
        <ele>97.5</ele>
        <time>2022-09-20T13:48:29Z</time>
      </trkpt>
      <trkpt lat="44.04425" lon="0.13986">
        <ele>97.1</ele>
        <time>2022-09-20T13:48:36Z</time>
      </trkpt>
      <trkpt lat="44.04425" lon="0.13979">
        <ele>96.6</ele>
        <time>2022-09-20T13:48:41Z</time>
      </trkpt>
      <trkpt lat="44.04424" lon="0.13971">
        <ele>96.3</ele>
        <time>2022-09-20T13:48:44Z</time>
      </trkpt>
      <trkpt lat="44.04424" lon="0.13963">
        <ele>96.3</ele>
        <time>2022-09-20T13:48:49Z</time>
      </trkpt>
      <trkpt lat="44.04424" lon="0.13956">
        <ele>96.5</ele>
        <time>2022-09-20T13:48:53Z</time>
      </trkpt>
      <trkpt lat="44.04423" lon="0.13948">
        <ele>96.8</ele>
        <time>2022-09-20T13:48:57Z</time>
      </trkpt>
      <trkpt lat="44.04422" lon="0.13941">
        <ele>97.2</ele>
        <time>2022-09-20T13:49:01Z</time>
      </trkpt>
      <trkpt lat="44.04422" lon="0.13935">
        <ele>97.8</ele>
        <time>2022-09-20T13:49:05Z</time>
      </trkpt>
      <trkpt lat="44.04422" lon="0.13928">
        <ele>98.7</ele>
        <time>2022-09-20T13:49:09Z</time>
      </trkpt>
      <trkpt lat="44.04422" lon="0.1392">
        <ele>100.2</ele>
        <time>2022-09-20T13:49:14Z</time>
      </trkpt>
      <trkpt lat="44.04423" lon="0.13914">
        <ele>101</ele>
        <time>2022-09-20T13:49:18Z</time>
      </trkpt>
      <trkpt lat="44.04423" lon="0.13906">
        <ele>101.8</ele>
        <time>2022-09-20T13:49:22Z</time>
      </trkpt>
      <trkpt lat="44.04421" lon="0.13898">
        <ele>102.2</ele>
        <time>2022-09-20T13:49:26Z</time>
      </trkpt>
      <trkpt lat="44.04421" lon="0.13891">
        <ele>101.9</ele>
        <time>2022-09-20T13:49:30Z</time>
      </trkpt>
      <trkpt lat="44.04421" lon="0.13884">
        <ele>101.4</ele>
        <time>2022-09-20T13:49:34Z</time>
      </trkpt>
      <trkpt lat="44.0442" lon="0.13877">
        <ele>101.2</ele>
        <time>2022-09-20T13:49:39Z</time>
      </trkpt>
      <trkpt lat="44.04417" lon="0.13869">
        <ele>101.3</ele>
        <time>2022-09-20T13:49:44Z</time>
      </trkpt>
      <trkpt lat="44.04413" lon="0.13865">
        <ele>101.5</ele>
        <time>2022-09-20T13:49:47Z</time>
      </trkpt>
      <trkpt lat="44.0441" lon="0.1386">
        <ele>101.9</ele>
        <time>2022-09-20T13:49:51Z</time>
      </trkpt>
      <trkpt lat="44.04409" lon="0.13854">
        <ele>101.6</ele>
        <time>2022-09-20T13:49:58Z</time>
      </trkpt>
      <trkpt lat="44.04411" lon="0.13847">
        <ele>100.8</ele>
        <time>2022-09-20T13:50:04Z</time>
      </trkpt>
      <trkpt lat="44.04413" lon="0.13839">
        <ele>99.9</ele>
        <time>2022-09-20T13:50:09Z</time>
      </trkpt>
      <trkpt lat="44.04414" lon="0.13831">
        <ele>99.8</ele>
        <time>2022-09-20T13:50:13Z</time>
      </trkpt>
      <trkpt lat="44.04415" lon="0.13824">
        <ele>100</ele>
        <time>2022-09-20T13:50:17Z</time>
      </trkpt>
      <trkpt lat="44.04415" lon="0.13813">
        <ele>98.8</ele>
        <time>2022-09-20T13:50:30Z</time>
      </trkpt>
      <trkpt lat="44.04415" lon="0.13806">
        <ele>97.6</ele>
        <time>2022-09-20T13:50:34Z</time>
      </trkpt>
      <trkpt lat="44.0442" lon="0.13802">
        <ele>95.5</ele>
        <time>2022-09-20T13:50:45Z</time>
      </trkpt>
      <trkpt lat="44.04425" lon="0.138">
        <ele>94.3</ele>
        <time>2022-09-20T13:50:49Z</time>
      </trkpt>
      <trkpt lat="44.04429" lon="0.138">
        <ele>93.3</ele>
        <time>2022-09-20T13:50:53Z</time>
      </trkpt>
      <trkpt lat="44.04434" lon="0.13797">
        <ele>92.6</ele>
        <time>2022-09-20T13:50:56Z</time>
      </trkpt>
      <trkpt lat="44.04438" lon="0.13792">
        <ele>91.7</ele>
        <time>2022-09-20T13:51:00Z</time>
      </trkpt>
      <trkpt lat="44.04441" lon="0.13784">
        <ele>91</ele>
        <time>2022-09-20T13:51:07Z</time>
      </trkpt>
      <trkpt lat="44.04443" lon="0.13779">
        <ele>91</ele>
        <time>2022-09-20T13:51:10Z</time>
      </trkpt>
      <trkpt lat="44.04447" lon="0.13772">
        <ele>91.1</ele>
        <time>2022-09-20T13:51:18Z</time>
      </trkpt>
      <trkpt lat="44.04451" lon="0.13764">
        <ele>90.9</ele>
        <time>2022-09-20T13:51:21Z</time>
      </trkpt>
      <trkpt lat="44.04454" lon="0.1376">
        <ele>90.6</ele>
        <time>2022-09-20T13:51:29Z</time>
      </trkpt>
      <trkpt lat="44.04459" lon="0.13749">
        <ele>90.3</ele>
        <time>2022-09-20T13:51:32Z</time>
      </trkpt>
      <trkpt lat="44.04462" lon="0.13738">
        <ele>91</ele>
        <time>2022-09-20T13:51:41Z</time>
      </trkpt>
      <trkpt lat="44.04465" lon="0.13731">
        <ele>91.7</ele>
        <time>2022-09-20T13:51:44Z</time>
      </trkpt>
      <trkpt lat="44.04469" lon="0.13726">
        <ele>92.3</ele>
        <time>2022-09-20T13:51:48Z</time>
      </trkpt>
      <trkpt lat="44.04473" lon="0.13722">
        <ele>92.3</ele>
        <time>2022-09-20T13:51:52Z</time>
      </trkpt>
      <trkpt lat="44.04477" lon="0.13716">
        <ele>91.8</ele>
        <time>2022-09-20T13:51:56Z</time>
      </trkpt>
      <trkpt lat="44.04479" lon="0.13706">
        <ele>91.7</ele>
        <time>2022-09-20T13:52:04Z</time>
      </trkpt>
      <trkpt lat="44.0448" lon="0.13697">
        <ele>92.2</ele>
        <time>2022-09-20T13:52:07Z</time>
      </trkpt>
      <trkpt lat="44.0448" lon="0.1369">
        <ele>92.6</ele>
        <time>2022-09-20T13:52:10Z</time>
      </trkpt>
      <trkpt lat="44.0448" lon="0.13683">
        <ele>93.1</ele>
        <time>2022-09-20T13:52:14Z</time>
      </trkpt>
      <trkpt lat="44.04481" lon="0.13676">
        <ele>93.6</ele>
        <time>2022-09-20T13:52:18Z</time>
      </trkpt>
      <trkpt lat="44.04483" lon="0.13669">
        <ele>94.3</ele>
        <time>2022-09-20T13:52:22Z</time>
      </trkpt>
      <trkpt lat="44.04485" lon="0.13663">
        <ele>95</ele>
        <time>2022-09-20T13:52:27Z</time>
      </trkpt>
      <trkpt lat="44.04488" lon="0.13656">
        <ele>95.5</ele>
        <time>2022-09-20T13:52:31Z</time>
      </trkpt>
      <trkpt lat="44.04491" lon="0.1365">
        <ele>95.9</ele>
        <time>2022-09-20T13:52:37Z</time>
      </trkpt>
      <trkpt lat="44.0449" lon="0.13643">
        <ele>95.7</ele>
        <time>2022-09-20T13:52:42Z</time>
      </trkpt>
      <trkpt lat="44.04489" lon="0.13636">
        <ele>95.5</ele>
        <time>2022-09-20T13:52:45Z</time>
      </trkpt>
      <trkpt lat="44.04486" lon="0.13631">
        <ele>95</ele>
        <time>2022-09-20T13:52:53Z</time>
      </trkpt>
      <trkpt lat="44.04482" lon="0.13626">
        <ele>94.6</ele>
        <time>2022-09-20T13:52:56Z</time>
      </trkpt>
      <trkpt lat="44.04477" lon="0.1362">
        <ele>94.3</ele>
        <time>2022-09-20T13:52:59Z</time>
      </trkpt>
      <trkpt lat="44.04472" lon="0.13616">
        <ele>94</ele>
        <time>2022-09-20T13:53:03Z</time>
      </trkpt>
      <trkpt lat="44.04467" lon="0.13614">
        <ele>93.8</ele>
        <time>2022-09-20T13:53:07Z</time>
      </trkpt>
      <trkpt lat="44.04459" lon="0.13613">
        <ele>93.8</ele>
        <time>2022-09-20T13:53:18Z</time>
      </trkpt>
      <trkpt lat="44.04453" lon="0.13613">
        <ele>93.4</ele>
        <time>2022-09-20T13:53:21Z</time>
      </trkpt>
      <trkpt lat="44.04447" lon="0.13614">
        <ele>92.3</ele>
        <time>2022-09-20T13:53:26Z</time>
      </trkpt>
      <trkpt lat="44.04442" lon="0.13615">
        <ele>91.3</ele>
        <time>2022-09-20T13:53:29Z</time>
      </trkpt>
      <trkpt lat="44.04435" lon="0.13614">
        <ele>89.2</ele>
        <time>2022-09-20T13:53:35Z</time>
      </trkpt>
      <trkpt lat="44.0443" lon="0.13613">
        <ele>88.1</ele>
        <time>2022-09-20T13:53:38Z</time>
      </trkpt>
      <trkpt lat="44.04425" lon="0.13612">
        <ele>86.6</ele>
        <time>2022-09-20T13:53:42Z</time>
      </trkpt>
      <trkpt lat="44.04421" lon="0.13608">
        <ele>85.6</ele>
        <time>2022-09-20T13:53:46Z</time>
      </trkpt>
      <trkpt lat="44.04416" lon="0.13605">
        <ele>84.4</ele>
        <time>2022-09-20T13:53:52Z</time>
      </trkpt>
      <trkpt lat="44.04411" lon="0.13603">
        <ele>83.8</ele>
        <time>2022-09-20T13:53:55Z</time>
      </trkpt>
      <trkpt lat="44.04416" lon="0.136">
        <ele>83</ele>
        <time>2022-09-20T13:54:11Z</time>
      </trkpt>
      <trkpt lat="44.04421" lon="0.13601">
        <ele>83.4</ele>
        <time>2022-09-20T13:54:14Z</time>
      </trkpt>
      <trkpt lat="44.04427" lon="0.13604">
        <ele>83.1</ele>
        <time>2022-09-20T13:54:22Z</time>
      </trkpt>
      <trkpt lat="44.04432" lon="0.13605">
        <ele>82.1</ele>
        <time>2022-09-20T13:54:26Z</time>
      </trkpt>
      <trkpt lat="44.04437" lon="0.13603">
        <ele>80.8</ele>
        <time>2022-09-20T13:54:35Z</time>
      </trkpt>
      <trkpt lat="44.04442" lon="0.13602">
        <ele>80.6</ele>
        <time>2022-09-20T13:54:38Z</time>
      </trkpt>
      <trkpt lat="44.04447" lon="0.13606">
        <ele>79.4</ele>
        <time>2022-09-20T13:55:48Z</time>
      </trkpt>
      <trkpt lat="44.04451" lon="0.13609">
        <ele>78.2</ele>
        <time>2022-09-20T13:55:55Z</time>
      </trkpt>
      <trkpt lat="44.04456" lon="0.13606">
        <ele>77.1</ele>
        <time>2022-09-20T13:57:25Z</time>
      </trkpt>
      <trkpt lat="44.04461" lon="0.13603">
        <ele>77.2</ele>
        <time>2022-09-20T13:57:30Z</time>
      </trkpt>
      <trkpt lat="44.04467" lon="0.136">
        <ele>77.8</ele>
        <time>2022-09-20T13:57:34Z</time>
      </trkpt>
      <trkpt lat="44.04471" lon="0.13597">
        <ele>78.8</ele>
        <time>2022-09-20T13:57:37Z</time>
      </trkpt>
      <trkpt lat="44.04476" lon="0.13594">
        <ele>79.9</ele>
        <time>2022-09-20T13:57:41Z</time>
      </trkpt>
      <trkpt lat="44.04481" lon="0.13592">
        <ele>81</ele>
        <time>2022-09-20T13:57:45Z</time>
      </trkpt>
      <trkpt lat="44.04484" lon="0.13587">
        <ele>81.8</ele>
        <time>2022-09-20T13:57:50Z</time>
      </trkpt>
      <trkpt lat="44.04488" lon="0.13584">
        <ele>81.6</ele>
        <time>2022-09-20T13:57:54Z</time>
      </trkpt>
      <trkpt lat="44.04493" lon="0.1358">
        <ele>81</ele>
        <time>2022-09-20T13:57:59Z</time>
      </trkpt>
      <trkpt lat="44.04498" lon="0.13578">
        <ele>80.7</ele>
        <time>2022-09-20T13:58:03Z</time>
      </trkpt>
      <trkpt lat="44.04503" lon="0.13577">
        <ele>80.5</ele>
        <time>2022-09-20T13:58:06Z</time>
      </trkpt>
      <trkpt lat="44.04507" lon="0.13575">
        <ele>80.7</ele>
        <time>2022-09-20T13:58:11Z</time>
      </trkpt>
      <trkpt lat="44.04512" lon="0.13572">
        <ele>81.3</ele>
        <time>2022-09-20T13:58:16Z</time>
      </trkpt>
      <trkpt lat="44.04516" lon="0.13569">
        <ele>81.9</ele>
        <time>2022-09-20T13:58:19Z</time>
      </trkpt>
      <trkpt lat="44.04521" lon="0.13567">
        <ele>82.2</ele>
        <time>2022-09-20T13:58:23Z</time>
      </trkpt>
      <trkpt lat="44.04525" lon="0.13564">
        <ele>82.5</ele>
        <time>2022-09-20T13:58:28Z</time>
      </trkpt>
      <trkpt lat="44.04529" lon="0.13561">
        <ele>82.9</ele>
        <time>2022-09-20T13:58:33Z</time>
      </trkpt>
      <trkpt lat="44.04534" lon="0.1356">
        <ele>83.3</ele>
        <time>2022-09-20T13:58:39Z</time>
      </trkpt>
      <trkpt lat="44.04539" lon="0.13561">
        <ele>83.5</ele>
        <time>2022-09-20T13:58:45Z</time>
      </trkpt>
      <trkpt lat="44.04544" lon="0.13559">
        <ele>83.8</ele>
        <time>2022-09-20T13:58:52Z</time>
      </trkpt>
      <trkpt lat="44.04548" lon="0.13554">
        <ele>84.2</ele>
        <time>2022-09-20T13:58:55Z</time>
      </trkpt>
      <trkpt lat="44.04553" lon="0.13549">
        <ele>84.6</ele>
        <time>2022-09-20T13:58:58Z</time>
      </trkpt>
      <trkpt lat="44.04557" lon="0.13544">
        <ele>85.2</ele>
        <time>2022-09-20T13:59:01Z</time>
      </trkpt>
      <trkpt lat="44.04561" lon="0.1354">
        <ele>85.5</ele>
        <time>2022-09-20T13:59:04Z</time>
      </trkpt>
      <trkpt lat="44.04564" lon="0.13534">
        <ele>85.5</ele>
        <time>2022-09-20T13:59:08Z</time>
      </trkpt>
      <trkpt lat="44.04566" lon="0.13528">
        <ele>85.2</ele>
        <time>2022-09-20T13:59:12Z</time>
      </trkpt>
      <trkpt lat="44.04569" lon="0.13522">
        <ele>84.7</ele>
        <time>2022-09-20T13:59:17Z</time>
      </trkpt>
      <trkpt lat="44.04574" lon="0.13516">
        <ele>83.6</ele>
        <time>2022-09-20T13:59:23Z</time>
      </trkpt>
      <trkpt lat="44.04578" lon="0.13514">
        <ele>82.7</ele>
        <time>2022-09-20T13:59:27Z</time>
      </trkpt>
      <trkpt lat="44.04583" lon="0.13511">
        <ele>81.9</ele>
        <time>2022-09-20T13:59:31Z</time>
      </trkpt>
      <trkpt lat="44.04587" lon="0.13509">
        <ele>81.1</ele>
        <time>2022-09-20T13:59:35Z</time>
      </trkpt>
      <trkpt lat="44.04593" lon="0.13506">
        <ele>80.7</ele>
        <time>2022-09-20T13:59:39Z</time>
      </trkpt>
      <trkpt lat="44.04597" lon="0.13503">
        <ele>80.3</ele>
        <time>2022-09-20T13:59:45Z</time>
      </trkpt>
      <trkpt lat="44.04602" lon="0.13501">
        <ele>79.4</ele>
        <time>2022-09-20T13:59:48Z</time>
      </trkpt>
      <trkpt lat="44.04607" lon="0.13499">
        <ele>78.6</ele>
        <time>2022-09-20T13:59:52Z</time>
      </trkpt>
      <trkpt lat="44.04612" lon="0.13496">
        <ele>78</ele>
        <time>2022-09-20T13:59:57Z</time>
      </trkpt>
      <trkpt lat="44.04617" lon="0.13494">
        <ele>78.1</ele>
        <time>2022-09-20T14:00:02Z</time>
      </trkpt>
      <trkpt lat="44.04623" lon="0.13491">
        <ele>78.9</ele>
        <time>2022-09-20T14:00:06Z</time>
      </trkpt>
      <trkpt lat="44.04628" lon="0.13489">
        <ele>80.1</ele>
        <time>2022-09-20T14:00:10Z</time>
      </trkpt>
      <trkpt lat="44.04632" lon="0.13486">
        <ele>81.3</ele>
        <time>2022-09-20T14:00:14Z</time>
      </trkpt>
      <trkpt lat="44.04637" lon="0.13484">
        <ele>81.8</ele>
        <time>2022-09-20T14:00:18Z</time>
      </trkpt>
      <trkpt lat="44.04641" lon="0.1348">
        <ele>81.7</ele>
        <time>2022-09-20T14:00:23Z</time>
      </trkpt>
      <trkpt lat="44.04647" lon="0.13477">
        <ele>80.6</ele>
        <time>2022-09-20T14:00:29Z</time>
      </trkpt>
      <trkpt lat="44.04652" lon="0.13475">
        <ele>79.9</ele>
        <time>2022-09-20T14:00:34Z</time>
      </trkpt>
      <trkpt lat="44.04656" lon="0.13473">
        <ele>79.9</ele>
        <time>2022-09-20T14:00:38Z</time>
      </trkpt>
      <trkpt lat="44.04661" lon="0.13469">
        <ele>80.3</ele>
        <time>2022-09-20T14:00:42Z</time>
      </trkpt>
      <trkpt lat="44.04665" lon="0.13466">
        <ele>80.3</ele>
        <time>2022-09-20T14:00:46Z</time>
      </trkpt>
      <trkpt lat="44.0467" lon="0.13463">
        <ele>80.3</ele>
        <time>2022-09-20T14:00:49Z</time>
      </trkpt>
      <trkpt lat="44.04675" lon="0.13461">
        <ele>80.7</ele>
        <time>2022-09-20T14:00:52Z</time>
      </trkpt>
      <trkpt lat="44.04679" lon="0.13459">
        <ele>81.3</ele>
        <time>2022-09-20T14:00:57Z</time>
      </trkpt>
      <trkpt lat="44.04685" lon="0.13457">
        <ele>81</ele>
        <time>2022-09-20T14:01:02Z</time>
      </trkpt>
      <trkpt lat="44.04689" lon="0.13455">
        <ele>81</ele>
        <time>2022-09-20T14:01:05Z</time>
      </trkpt>
      <trkpt lat="44.04694" lon="0.13453">
        <ele>81.3</ele>
        <time>2022-09-20T14:01:08Z</time>
      </trkpt>
      <trkpt lat="44.04698" lon="0.13451">
        <ele>81.8</ele>
        <time>2022-09-20T14:01:12Z</time>
      </trkpt>
      <trkpt lat="44.04704" lon="0.13448">
        <ele>82.3</ele>
        <time>2022-09-20T14:01:17Z</time>
      </trkpt>
      <trkpt lat="44.04708" lon="0.13444">
        <ele>82.6</ele>
        <time>2022-09-20T14:01:22Z</time>
      </trkpt>
      <trkpt lat="44.04713" lon="0.13441">
        <ele>82.6</ele>
        <time>2022-09-20T14:01:26Z</time>
      </trkpt>
      <trkpt lat="44.04718" lon="0.13436">
        <ele>82.9</ele>
        <time>2022-09-20T14:01:30Z</time>
      </trkpt>
      <trkpt lat="44.04722" lon="0.13432">
        <ele>83.5</ele>
        <time>2022-09-20T14:01:34Z</time>
      </trkpt>
      <trkpt lat="44.04726" lon="0.13431">
        <ele>84.2</ele>
        <time>2022-09-20T14:01:38Z</time>
      </trkpt>
      <trkpt lat="44.04731" lon="0.13428">
        <ele>84.9</ele>
        <time>2022-09-20T14:01:43Z</time>
      </trkpt>
      <trkpt lat="44.04736" lon="0.13424">
        <ele>84.7</ele>
        <time>2022-09-20T14:01:47Z</time>
      </trkpt>
      <trkpt lat="44.0474" lon="0.13421">
        <ele>84</ele>
        <time>2022-09-20T14:01:51Z</time>
      </trkpt>
      <trkpt lat="44.04744" lon="0.13419">
        <ele>83.6</ele>
        <time>2022-09-20T14:01:55Z</time>
      </trkpt>
      <trkpt lat="44.04749" lon="0.13416">
        <ele>83.5</ele>
        <time>2022-09-20T14:01:59Z</time>
      </trkpt>
      <trkpt lat="44.04753" lon="0.13412">
        <ele>83</ele>
        <time>2022-09-20T14:02:03Z</time>
      </trkpt>
      <trkpt lat="44.04758" lon="0.13409">
        <ele>82</ele>
        <time>2022-09-20T14:02:07Z</time>
      </trkpt>
      <trkpt lat="44.04762" lon="0.13405">
        <ele>81.3</ele>
        <time>2022-09-20T14:02:11Z</time>
      </trkpt>
      <trkpt lat="44.04766" lon="0.134">
        <ele>80.8</ele>
        <time>2022-09-20T14:02:15Z</time>
      </trkpt>
      <trkpt lat="44.0477" lon="0.13396">
        <ele>80.5</ele>
        <time>2022-09-20T14:02:19Z</time>
      </trkpt>
      <trkpt lat="44.04774" lon="0.13392">
        <ele>80.6</ele>
        <time>2022-09-20T14:02:23Z</time>
      </trkpt>
      <trkpt lat="44.04778" lon="0.13387">
        <ele>80.5</ele>
        <time>2022-09-20T14:02:27Z</time>
      </trkpt>
      <trkpt lat="44.04781" lon="0.13383">
        <ele>80.3</ele>
        <time>2022-09-20T14:02:30Z</time>
      </trkpt>
      <trkpt lat="44.04784" lon="0.13378">
        <ele>79.7</ele>
        <time>2022-09-20T14:02:34Z</time>
      </trkpt>
      <trkpt lat="44.04789" lon="0.13374">
        <ele>79.6</ele>
        <time>2022-09-20T14:02:39Z</time>
      </trkpt>
      <trkpt lat="44.04793" lon="0.1337">
        <ele>79.4</ele>
        <time>2022-09-20T14:02:43Z</time>
      </trkpt>
      <trkpt lat="44.04797" lon="0.13366">
        <ele>79.4</ele>
        <time>2022-09-20T14:02:47Z</time>
      </trkpt>
      <trkpt lat="44.04802" lon="0.13363">
        <ele>78.9</ele>
        <time>2022-09-20T14:02:52Z</time>
      </trkpt>
      <trkpt lat="44.04807" lon="0.13359">
        <ele>78.1</ele>
        <time>2022-09-20T14:02:57Z</time>
      </trkpt>
      <trkpt lat="44.04811" lon="0.13355">
        <ele>77.5</ele>
        <time>2022-09-20T14:03:01Z</time>
      </trkpt>
      <trkpt lat="44.04816" lon="0.13351">
        <ele>77.1</ele>
        <time>2022-09-20T14:03:05Z</time>
      </trkpt>
      <trkpt lat="44.0482" lon="0.13348">
        <ele>76.6</ele>
        <time>2022-09-20T14:03:09Z</time>
      </trkpt>
      <trkpt lat="44.04824" lon="0.13344">
        <ele>75.8</ele>
        <time>2022-09-20T14:03:13Z</time>
      </trkpt>
      <trkpt lat="44.04828" lon="0.1334">
        <ele>75.3</ele>
        <time>2022-09-20T14:03:17Z</time>
      </trkpt>
      <trkpt lat="44.04832" lon="0.13335">
        <ele>74.7</ele>
        <time>2022-09-20T14:03:21Z</time>
      </trkpt>
      <trkpt lat="44.04836" lon="0.13331">
        <ele>74.4</ele>
        <time>2022-09-20T14:03:25Z</time>
      </trkpt>
      <trkpt lat="44.0484" lon="0.13326">
        <ele>74.5</ele>
        <time>2022-09-20T14:03:29Z</time>
      </trkpt>
      <trkpt lat="44.04844" lon="0.13322">
        <ele>74.5</ele>
        <time>2022-09-20T14:03:33Z</time>
      </trkpt>
      <trkpt lat="44.04848" lon="0.13319">
        <ele>74.5</ele>
        <time>2022-09-20T14:03:38Z</time>
      </trkpt>
      <trkpt lat="44.04853" lon="0.13315">
        <ele>74.5</ele>
        <time>2022-09-20T14:03:43Z</time>
      </trkpt>
      <trkpt lat="44.04857" lon="0.13311">
        <ele>74.5</ele>
        <time>2022-09-20T14:03:48Z</time>
      </trkpt>
      <trkpt lat="44.04862" lon="0.13305">
        <ele>74.3</ele>
        <time>2022-09-20T14:03:52Z</time>
      </trkpt>
      <trkpt lat="44.04867" lon="0.13301">
        <ele>74.1</ele>
        <time>2022-09-20T14:03:56Z</time>
      </trkpt>
      <trkpt lat="44.04871" lon="0.13297">
        <ele>74.4</ele>
        <time>2022-09-20T14:04:00Z</time>
      </trkpt>
      <trkpt lat="44.04877" lon="0.13295">
        <ele>74.6</ele>
        <time>2022-09-20T14:04:05Z</time>
      </trkpt>
      <trkpt lat="44.04881" lon="0.13291">
        <ele>75.1</ele>
        <time>2022-09-20T14:04:09Z</time>
      </trkpt>
      <trkpt lat="44.04885" lon="0.13287">
        <ele>75.8</ele>
        <time>2022-09-20T14:04:13Z</time>
      </trkpt>
      <trkpt lat="44.04889" lon="0.1328">
        <ele>76.7</ele>
        <time>2022-09-20T14:04:17Z</time>
      </trkpt>
      <trkpt lat="44.04892" lon="0.13276">
        <ele>77.3</ele>
        <time>2022-09-20T14:04:20Z</time>
      </trkpt>
      <trkpt lat="44.04897" lon="0.13271">
        <ele>78.4</ele>
        <time>2022-09-20T14:04:24Z</time>
      </trkpt>
      <trkpt lat="44.04902" lon="0.13271">
        <ele>78.9</ele>
        <time>2022-09-20T14:04:28Z</time>
      </trkpt>
      <trkpt lat="44.04906" lon="0.13272">
        <ele>77.8</ele>
        <time>2022-09-20T14:04:34Z</time>
      </trkpt>
      <trkpt lat="44.0491" lon="0.13268">
        <ele>76.1</ele>
        <time>2022-09-20T14:04:39Z</time>
      </trkpt>
      <trkpt lat="44.04914" lon="0.13262">
        <ele>74.4</ele>
        <time>2022-09-20T14:04:42Z</time>
      </trkpt>
      <trkpt lat="44.04917" lon="0.13256">
        <ele>73.2</ele>
        <time>2022-09-20T14:04:45Z</time>
      </trkpt>
      <trkpt lat="44.04919" lon="0.1325">
        <ele>72</ele>
        <time>2022-09-20T14:04:48Z</time>
      </trkpt>
      <trkpt lat="44.04923" lon="0.13243">
        <ele>71.2</ele>
        <time>2022-09-20T14:04:52Z</time>
      </trkpt>
      <trkpt lat="44.04926" lon="0.13238">
        <ele>71.3</ele>
        <time>2022-09-20T14:04:55Z</time>
      </trkpt>
      <trkpt lat="44.04929" lon="0.13232">
        <ele>71.6</ele>
        <time>2022-09-20T14:05:00Z</time>
      </trkpt>
      <trkpt lat="44.04933" lon="0.13229">
        <ele>70.2</ele>
        <time>2022-09-20T14:05:07Z</time>
      </trkpt>
      <trkpt lat="44.04938" lon="0.13226">
        <ele>69</ele>
        <time>2022-09-20T14:05:12Z</time>
      </trkpt>
      <trkpt lat="44.04941" lon="0.1322">
        <ele>68.2</ele>
        <time>2022-09-20T14:05:16Z</time>
      </trkpt>
      <trkpt lat="44.04944" lon="0.13215">
        <ele>68</ele>
        <time>2022-09-20T14:05:20Z</time>
      </trkpt>
      <trkpt lat="44.04948" lon="0.13211">
        <ele>68</ele>
        <time>2022-09-20T14:05:24Z</time>
      </trkpt>
      <trkpt lat="44.04952" lon="0.13205">
        <ele>68.4</ele>
        <time>2022-09-20T14:05:28Z</time>
      </trkpt>
      <trkpt lat="44.04955" lon="0.13198">
        <ele>68.9</ele>
        <time>2022-09-20T14:05:32Z</time>
      </trkpt>
      <trkpt lat="44.04958" lon="0.13192">
        <ele>69.7</ele>
        <time>2022-09-20T14:05:36Z</time>
      </trkpt>
      <trkpt lat="44.04962" lon="0.13187">
        <ele>71.2</ele>
        <time>2022-09-20T14:05:40Z</time>
      </trkpt>
      <trkpt lat="44.04966" lon="0.13181">
        <ele>72.8</ele>
        <time>2022-09-20T14:05:45Z</time>
      </trkpt>
      <trkpt lat="44.04969" lon="0.13176">
        <ele>73.5</ele>
        <time>2022-09-20T14:05:48Z</time>
      </trkpt>
      <trkpt lat="44.04973" lon="0.13171">
        <ele>74.3</ele>
        <time>2022-09-20T14:05:52Z</time>
      </trkpt>
      <trkpt lat="44.04977" lon="0.13167">
        <ele>74.9</ele>
        <time>2022-09-20T14:05:56Z</time>
      </trkpt>
      <trkpt lat="44.04981" lon="0.13162">
        <ele>74.9</ele>
        <time>2022-09-20T14:06:01Z</time>
      </trkpt>
      <trkpt lat="44.04985" lon="0.13157">
        <ele>74.6</ele>
        <time>2022-09-20T14:06:05Z</time>
      </trkpt>
      <trkpt lat="44.04989" lon="0.13151">
        <ele>74.8</ele>
        <time>2022-09-20T14:06:09Z</time>
      </trkpt>
      <trkpt lat="44.04992" lon="0.13145">
        <ele>75.4</ele>
        <time>2022-09-20T14:06:13Z</time>
      </trkpt>
      <trkpt lat="44.04995" lon="0.1314">
        <ele>76.4</ele>
        <time>2022-09-20T14:06:16Z</time>
      </trkpt>
      <trkpt lat="44.05" lon="0.13135">
        <ele>77.3</ele>
        <time>2022-09-20T14:06:20Z</time>
      </trkpt>
      <trkpt lat="44.05002" lon="0.13129">
        <ele>78</ele>
        <time>2022-09-20T14:06:24Z</time>
      </trkpt>
      <trkpt lat="44.05005" lon="0.13123">
        <ele>78.3</ele>
        <time>2022-09-20T14:06:28Z</time>
      </trkpt>
      <trkpt lat="44.05007" lon="0.13117">
        <ele>77.9</ele>
        <time>2022-09-20T14:06:32Z</time>
      </trkpt>
      <trkpt lat="44.0501" lon="0.13112">
        <ele>77.3</ele>
        <time>2022-09-20T14:06:36Z</time>
      </trkpt>
      <trkpt lat="44.05013" lon="0.13107">
        <ele>77.1</ele>
        <time>2022-09-20T14:06:40Z</time>
      </trkpt>
      <trkpt lat="44.05017" lon="0.13101">
        <ele>77.1</ele>
        <time>2022-09-20T14:06:45Z</time>
      </trkpt>
      <trkpt lat="44.0502" lon="0.13096">
        <ele>76.5</ele>
        <time>2022-09-20T14:06:49Z</time>
      </trkpt>
      <trkpt lat="44.05024" lon="0.13091">
        <ele>75.9</ele>
        <time>2022-09-20T14:06:54Z</time>
      </trkpt>
      <trkpt lat="44.05028" lon="0.13086">
        <ele>76.3</ele>
        <time>2022-09-20T14:06:58Z</time>
      </trkpt>
      <trkpt lat="44.05031" lon="0.1308">
        <ele>77.3</ele>
        <time>2022-09-20T14:07:02Z</time>
      </trkpt>
      <trkpt lat="44.05035" lon="0.13075">
        <ele>77.9</ele>
        <time>2022-09-20T14:07:06Z</time>
      </trkpt>
      <trkpt lat="44.05039" lon="0.13071">
        <ele>78.3</ele>
        <time>2022-09-20T14:07:10Z</time>
      </trkpt>
      <trkpt lat="44.05043" lon="0.13065">
        <ele>78.4</ele>
        <time>2022-09-20T14:07:14Z</time>
      </trkpt>
      <trkpt lat="44.05045" lon="0.13059">
        <ele>78.3</ele>
        <time>2022-09-20T14:07:18Z</time>
      </trkpt>
      <trkpt lat="44.05049" lon="0.13052">
        <ele>77.4</ele>
        <time>2022-09-20T14:07:38Z</time>
      </trkpt>
      <trkpt lat="44.05053" lon="0.13048">
        <ele>76.9</ele>
        <time>2022-09-20T14:07:41Z</time>
      </trkpt>
      <trkpt lat="44.05057" lon="0.13043">
        <ele>76.7</ele>
        <time>2022-09-20T14:07:44Z</time>
      </trkpt>
      <trkpt lat="44.0506" lon="0.13039">
        <ele>76.8</ele>
        <time>2022-09-20T14:07:48Z</time>
      </trkpt>
      <trkpt lat="44.05063" lon="0.13034">
        <ele>77.5</ele>
        <time>2022-09-20T14:07:53Z</time>
      </trkpt>
      <trkpt lat="44.05066" lon="0.13028">
        <ele>78.2</ele>
        <time>2022-09-20T14:07:57Z</time>
      </trkpt>
      <trkpt lat="44.0507" lon="0.13024">
        <ele>78.7</ele>
        <time>2022-09-20T14:08:01Z</time>
      </trkpt>
      <trkpt lat="44.05074" lon="0.13019">
        <ele>79.4</ele>
        <time>2022-09-20T14:08:06Z</time>
      </trkpt>
      <trkpt lat="44.05077" lon="0.13014">
        <ele>80.2</ele>
        <time>2022-09-20T14:08:10Z</time>
      </trkpt>
      <trkpt lat="44.05081" lon="0.13009">
        <ele>80.2</ele>
        <time>2022-09-20T14:08:14Z</time>
      </trkpt>
      <trkpt lat="44.05085" lon="0.13005">
        <ele>79.7</ele>
        <time>2022-09-20T14:08:18Z</time>
      </trkpt>
      <trkpt lat="44.05093" lon="0.13004">
        <ele>77.9</ele>
        <time>2022-09-20T14:08:34Z</time>
      </trkpt>
      <trkpt lat="44.051" lon="0.13007">
        <ele>77.1</ele>
        <time>2022-09-20T14:08:37Z</time>
      </trkpt>
      <trkpt lat="44.05106" lon="0.13009">
        <ele>76.4</ele>
        <time>2022-09-20T14:08:40Z</time>
      </trkpt>
      <trkpt lat="44.05112" lon="0.13014">
        <ele>75.1</ele>
        <time>2022-09-20T14:08:50Z</time>
      </trkpt>
      <trkpt lat="44.05118" lon="0.13018">
        <ele>74.6</ele>
        <time>2022-09-20T14:08:53Z</time>
      </trkpt>
      <trkpt lat="44.05124" lon="0.13022">
        <ele>73.7</ele>
        <time>2022-09-20T14:08:59Z</time>
      </trkpt>
      <trkpt lat="44.05129" lon="0.13027">
        <ele>73.2</ele>
        <time>2022-09-20T14:09:02Z</time>
      </trkpt>
      <trkpt lat="44.05135" lon="0.13033">
        <ele>71.4</ele>
        <time>2022-09-20T14:09:16Z</time>
      </trkpt>
      <trkpt lat="44.05141" lon="0.13038">
        <ele>70.6</ele>
        <time>2022-09-20T14:09:19Z</time>
      </trkpt>
      <trkpt lat="44.05145" lon="0.13041">
        <ele>70</ele>
        <time>2022-09-20T14:09:22Z</time>
      </trkpt>
      <trkpt lat="44.0515" lon="0.13046">
        <ele>68.8</ele>
        <time>2022-09-20T14:09:36Z</time>
      </trkpt>
      <trkpt lat="44.05155" lon="0.1305">
        <ele>68.6</ele>
        <time>2022-09-20T14:09:39Z</time>
      </trkpt>
      <trkpt lat="44.05159" lon="0.13054">
        <ele>68.4</ele>
        <time>2022-09-20T14:09:43Z</time>
      </trkpt>
      <trkpt lat="44.05165" lon="0.13055">
        <ele>67.6</ele>
        <time>2022-09-20T14:09:51Z</time>
      </trkpt>
      <trkpt lat="44.05171" lon="0.13056">
        <ele>67</ele>
        <time>2022-09-20T14:09:54Z</time>
      </trkpt>
      <trkpt lat="44.05178" lon="0.13053">
        <ele>66.2</ele>
        <time>2022-09-20T14:10:07Z</time>
      </trkpt>
      <trkpt lat="44.05182" lon="0.13049">
        <ele>66.1</ele>
        <time>2022-09-20T14:10:10Z</time>
      </trkpt>
      <trkpt lat="44.05186" lon="0.13041">
        <ele>67.2</ele>
        <time>2022-09-20T14:10:17Z</time>
      </trkpt>
      <trkpt lat="44.0519" lon="0.13033">
        <ele>68.4</ele>
        <time>2022-09-20T14:10:20Z</time>
      </trkpt>
      <trkpt lat="44.05193" lon="0.13027">
        <ele>70.6</ele>
        <time>2022-09-20T14:10:24Z</time>
      </trkpt>
      <trkpt lat="44.05198" lon="0.13017">
        <ele>76.3</ele>
        <time>2022-09-20T14:10:35Z</time>
      </trkpt>
      <trkpt lat="44.05201" lon="0.13009">
        <ele>78.7</ele>
        <time>2022-09-20T14:10:38Z</time>
      </trkpt>
      <trkpt lat="44.05205" lon="0.13">
        <ele>82.6</ele>
        <time>2022-09-20T14:10:45Z</time>
      </trkpt>
      <trkpt lat="44.05211" lon="0.12994">
        <ele>84.3</ele>
        <time>2022-09-20T14:10:48Z</time>
      </trkpt>
      <trkpt lat="44.05214" lon="0.12989">
        <ele>86.4</ele>
        <time>2022-09-20T14:10:52Z</time>
      </trkpt>
      <trkpt lat="44.05218" lon="0.12984">
        <ele>88.2</ele>
        <time>2022-09-20T14:10:57Z</time>
      </trkpt>
      <trkpt lat="44.05223" lon="0.12978">
        <ele>89.6</ele>
        <time>2022-09-20T14:11:03Z</time>
      </trkpt>
      <trkpt lat="44.05226" lon="0.12974">
        <ele>89.9</ele>
        <time>2022-09-20T14:11:06Z</time>
      </trkpt>
      <trkpt lat="44.0523" lon="0.1297">
        <ele>89.9</ele>
        <time>2022-09-20T14:11:09Z</time>
      </trkpt>
      <trkpt lat="44.05233" lon="0.12965">
        <ele>89.7</ele>
        <time>2022-09-20T14:11:16Z</time>
      </trkpt>
      <trkpt lat="44.05237" lon="0.12961">
        <ele>90.2</ele>
        <time>2022-09-20T14:11:22Z</time>
      </trkpt>
      <trkpt lat="44.05242" lon="0.12955">
        <ele>90.5</ele>
        <time>2022-09-20T14:11:25Z</time>
      </trkpt>
      <trkpt lat="44.05247" lon="0.12951">
        <ele>91</ele>
        <time>2022-09-20T14:11:30Z</time>
      </trkpt>
      <trkpt lat="44.05251" lon="0.12947">
        <ele>91.1</ele>
        <time>2022-09-20T14:11:34Z</time>
      </trkpt>
      <trkpt lat="44.05256" lon="0.12943">
        <ele>91.1</ele>
        <time>2022-09-20T14:11:42Z</time>
      </trkpt>
      <trkpt lat="44.05261" lon="0.12938">
        <ele>90.8</ele>
        <time>2022-09-20T14:11:45Z</time>
      </trkpt>
      <trkpt lat="44.05265" lon="0.12933">
        <ele>90.4</ele>
        <time>2022-09-20T14:11:48Z</time>
      </trkpt>
      <trkpt lat="44.05269" lon="0.12929">
        <ele>90</ele>
        <time>2022-09-20T14:11:52Z</time>
      </trkpt>
      <trkpt lat="44.05273" lon="0.12924">
        <ele>89.2</ele>
        <time>2022-09-20T14:12:01Z</time>
      </trkpt>
      <trkpt lat="44.05277" lon="0.12919">
        <ele>88.3</ele>
        <time>2022-09-20T14:12:04Z</time>
      </trkpt>
      <trkpt lat="44.0528" lon="0.12913">
        <ele>87.1</ele>
        <time>2022-09-20T14:12:08Z</time>
      </trkpt>
      <trkpt lat="44.05283" lon="0.12907">
        <ele>86.4</ele>
        <time>2022-09-20T14:12:11Z</time>
      </trkpt>
      <trkpt lat="44.05287" lon="0.12902">
        <ele>85.2</ele>
        <time>2022-09-20T14:12:17Z</time>
      </trkpt>
      <trkpt lat="44.05292" lon="0.12899">
        <ele>84.3</ele>
        <time>2022-09-20T14:12:22Z</time>
      </trkpt>
      <trkpt lat="44.05297" lon="0.12896">
        <ele>84.2</ele>
        <time>2022-09-20T14:12:25Z</time>
      </trkpt>
      <trkpt lat="44.05304" lon="0.12889">
        <ele>84.3</ele>
        <time>2022-09-20T14:12:35Z</time>
      </trkpt>
      <trkpt lat="44.05308" lon="0.12885">
        <ele>84.4</ele>
        <time>2022-09-20T14:12:39Z</time>
      </trkpt>
      <trkpt lat="44.05312" lon="0.1288">
        <ele>84.5</ele>
        <time>2022-09-20T14:12:48Z</time>
      </trkpt>
      <trkpt lat="44.05316" lon="0.12874">
        <ele>84.6</ele>
        <time>2022-09-20T14:12:51Z</time>
      </trkpt>
      <trkpt lat="44.05323" lon="0.12866">
        <ele>84</ele>
        <time>2022-09-20T14:13:03Z</time>
      </trkpt>
      <trkpt lat="44.05327" lon="0.12861">
        <ele>84.1</ele>
        <time>2022-09-20T14:13:06Z</time>
      </trkpt>
      <trkpt lat="44.0533" lon="0.12856">
        <ele>84.3</ele>
        <time>2022-09-20T14:13:09Z</time>
      </trkpt>
      <trkpt lat="44.05334" lon="0.12851">
        <ele>84.4</ele>
        <time>2022-09-20T14:13:12Z</time>
      </trkpt>
      <trkpt lat="44.05339" lon="0.12843">
        <ele>83.4</ele>
        <time>2022-09-20T14:13:25Z</time>
      </trkpt>
      <trkpt lat="44.0534" lon="0.12833">
        <ele>83.4</ele>
        <time>2022-09-20T14:13:28Z</time>
      </trkpt>
      <trkpt lat="44.0534" lon="0.12824">
        <ele>83.7</ele>
        <time>2022-09-20T14:13:31Z</time>
      </trkpt>
      <trkpt lat="44.0534" lon="0.12817">
        <ele>83.7</ele>
        <time>2022-09-20T14:13:34Z</time>
      </trkpt>
      <trkpt lat="44.0534" lon="0.1281">
        <ele>83.7</ele>
        <time>2022-09-20T14:13:37Z</time>
      </trkpt>
      <trkpt lat="44.0534" lon="0.12803">
        <ele>83.7</ele>
        <time>2022-09-20T14:13:41Z</time>
      </trkpt>
      <trkpt lat="44.05339" lon="0.12792">
        <ele>83.9</ele>
        <time>2022-09-20T14:13:51Z</time>
      </trkpt>
      <trkpt lat="44.05338" lon="0.12785">
        <ele>83.8</ele>
        <time>2022-09-20T14:13:54Z</time>
      </trkpt>
      <trkpt lat="44.05337" lon="0.12778">
        <ele>83.3</ele>
        <time>2022-09-20T14:14:00Z</time>
      </trkpt>
      <trkpt lat="44.05336" lon="0.12771">
        <ele>82.9</ele>
        <time>2022-09-20T14:14:04Z</time>
      </trkpt>
      <trkpt lat="44.05336" lon="0.12763">
        <ele>82.7</ele>
        <time>2022-09-20T14:14:08Z</time>
      </trkpt>
      <trkpt lat="44.05335" lon="0.12755">
        <ele>83</ele>
        <time>2022-09-20T14:14:11Z</time>
      </trkpt>
      <trkpt lat="44.05334" lon="0.12749">
        <ele>83.5</ele>
        <time>2022-09-20T14:14:17Z</time>
      </trkpt>
      <trkpt lat="44.05333" lon="0.12741">
        <ele>83.4</ele>
        <time>2022-09-20T14:14:25Z</time>
      </trkpt>
      <trkpt lat="44.05332" lon="0.12733">
        <ele>83.1</ele>
        <time>2022-09-20T14:14:28Z</time>
      </trkpt>
      <trkpt lat="44.05333" lon="0.12723">
        <ele>82.6</ele>
        <time>2022-09-20T14:14:35Z</time>
      </trkpt>
      <trkpt lat="44.05334" lon="0.12712">
        <ele>82.5</ele>
        <time>2022-09-20T14:14:38Z</time>
      </trkpt>
      <trkpt lat="44.05334" lon="0.12704">
        <ele>82.5</ele>
        <time>2022-09-20T14:14:41Z</time>
      </trkpt>
      <trkpt lat="44.05336" lon="0.12698">
        <ele>82.4</ele>
        <time>2022-09-20T14:14:51Z</time>
      </trkpt>
      <trkpt lat="44.05337" lon="0.12689">
        <ele>83</ele>
        <time>2022-09-20T14:14:54Z</time>
      </trkpt>
      <trkpt lat="44.05338" lon="0.12681">
        <ele>83.7</ele>
        <time>2022-09-20T14:14:57Z</time>
      </trkpt>
      <trkpt lat="44.0534" lon="0.12674">
        <ele>84.2</ele>
        <time>2022-09-20T14:15:02Z</time>
      </trkpt>
      <trkpt lat="44.0534" lon="0.12667">
        <ele>84.6</ele>
        <time>2022-09-20T14:15:08Z</time>
      </trkpt>
      <trkpt lat="44.05342" lon="0.12661">
        <ele>84.9</ele>
        <time>2022-09-20T14:15:12Z</time>
      </trkpt>
      <trkpt lat="44.05345" lon="0.12654">
        <ele>84.7</ele>
        <time>2022-09-20T14:15:18Z</time>
      </trkpt>
      <trkpt lat="44.05347" lon="0.12649">
        <ele>83.7</ele>
        <time>2022-09-20T14:15:27Z</time>
      </trkpt>
      <trkpt lat="44.05349" lon="0.12643">
        <ele>82.4</ele>
        <time>2022-09-20T14:15:31Z</time>
      </trkpt>
      <trkpt lat="44.05352" lon="0.12636">
        <ele>81.1</ele>
        <time>2022-09-20T14:15:34Z</time>
      </trkpt>
      <trkpt lat="44.05354" lon="0.12628">
        <ele>79.6</ele>
        <time>2022-09-20T14:15:38Z</time>
      </trkpt>
      <trkpt lat="44.05355" lon="0.1262">
        <ele>78.9</ele>
        <time>2022-09-20T14:15:41Z</time>
      </trkpt>
      <trkpt lat="44.05357" lon="0.12614">
        <ele>77.8</ele>
        <time>2022-09-20T14:15:46Z</time>
      </trkpt>
      <trkpt lat="44.05359" lon="0.12608">
        <ele>76.5</ele>
        <time>2022-09-20T14:15:56Z</time>
      </trkpt>
      <trkpt lat="44.0536" lon="0.12602">
        <ele>76.1</ele>
        <time>2022-09-20T14:15:59Z</time>
      </trkpt>
      <trkpt lat="44.05362" lon="0.12592">
        <ele>75.8</ele>
        <time>2022-09-20T14:16:09Z</time>
      </trkpt>
      <trkpt lat="44.05363" lon="0.12582">
        <ele>76.1</ele>
        <time>2022-09-20T14:16:12Z</time>
      </trkpt>
      <trkpt lat="44.05364" lon="0.12575">
        <ele>76.4</ele>
        <time>2022-09-20T14:16:15Z</time>
      </trkpt>
      <trkpt lat="44.05367" lon="0.12566">
        <ele>77.9</ele>
        <time>2022-09-20T14:16:32Z</time>
      </trkpt>
      <trkpt lat="44.0537" lon="0.1256">
        <ele>79.1</ele>
        <time>2022-09-20T14:16:37Z</time>
      </trkpt>
      <trkpt lat="44.0537" lon="0.12566">
        <ele>82.4</ele>
        <time>2022-09-20T14:17:31Z</time>
      </trkpt>
      <trkpt lat="44.0537" lon="0.12573">
        <ele>85.2</ele>
        <time>2022-09-20T14:17:38Z</time>
      </trkpt>
      <trkpt lat="44.05367" lon="0.12578">
        <ele>86.5</ele>
        <time>2022-09-20T14:17:49Z</time>
      </trkpt>
      <trkpt lat="44.05363" lon="0.12582">
        <ele>86.5</ele>
        <time>2022-09-20T14:17:52Z</time>
      </trkpt>
      <trkpt lat="44.05362" lon="0.12576">
        <ele>95.1</ele>
        <time>2022-09-20T14:19:32Z</time>
      </trkpt>
      <trkpt lat="44.05362" lon="0.12568">
        <ele>97.8</ele>
        <time>2022-09-20T14:20:26Z</time>
      </trkpt>
      <trkpt lat="44.05363" lon="0.12575">
        <ele>92.3</ele>
        <time>2022-09-20T14:21:47Z</time>
      </trkpt>
      <trkpt lat="44.05365" lon="0.12569">
        <ele>81.7</ele>
        <time>2022-09-20T14:22:20Z</time>
      </trkpt>
      <trkpt lat="44.05364" lon="0.1256">
        <ele>80.2</ele>
        <time>2022-09-20T14:22:33Z</time>
      </trkpt>
      <trkpt lat="44.05362" lon="0.12552">
        <ele>80.1</ele>
        <time>2022-09-20T14:22:36Z</time>
      </trkpt>
      <trkpt lat="44.05361" lon="0.12543">
        <ele>79.9</ele>
        <time>2022-09-20T14:22:47Z</time>
      </trkpt>
      <trkpt lat="44.05361" lon="0.12536">
        <ele>79.7</ele>
        <time>2022-09-20T14:22:50Z</time>
      </trkpt>
      <trkpt lat="44.05359" lon="0.12527">
        <ele>79.4</ele>
        <time>2022-09-20T14:23:01Z</time>
      </trkpt>
      <trkpt lat="44.05357" lon="0.1252">
        <ele>79.5</ele>
        <time>2022-09-20T14:23:04Z</time>
      </trkpt>
      <trkpt lat="44.05351" lon="0.12514">
        <ele>79.6</ele>
        <time>2022-09-20T14:23:15Z</time>
      </trkpt>
      <trkpt lat="44.05346" lon="0.12509">
        <ele>79.6</ele>
        <time>2022-09-20T14:23:18Z</time>
      </trkpt>
      <trkpt lat="44.05343" lon="0.12504">
        <ele>79.5</ele>
        <time>2022-09-20T14:23:21Z</time>
      </trkpt>
      <trkpt lat="44.05342" lon="0.12496">
        <ele>79.7</ele>
        <time>2022-09-20T14:23:26Z</time>
      </trkpt>
      <trkpt lat="44.05344" lon="0.12489">
        <ele>80.1</ele>
        <time>2022-09-20T14:23:30Z</time>
      </trkpt>
      <trkpt lat="44.05348" lon="0.12481">
        <ele>80.1</ele>
        <time>2022-09-20T14:23:43Z</time>
      </trkpt>
      <trkpt lat="44.05352" lon="0.12474">
        <ele>79.8</ele>
        <time>2022-09-20T14:23:46Z</time>
      </trkpt>
      <trkpt lat="44.05354" lon="0.12468">
        <ele>80</ele>
        <time>2022-09-20T14:23:49Z</time>
      </trkpt>
      <trkpt lat="44.05357" lon="0.12463">
        <ele>80.4</ele>
        <time>2022-09-20T14:23:52Z</time>
      </trkpt>
      <trkpt lat="44.0536" lon="0.12457">
        <ele>80.3</ele>
        <time>2022-09-20T14:23:55Z</time>
      </trkpt>
      <trkpt lat="44.05364" lon="0.1245">
        <ele>79.5</ele>
        <time>2022-09-20T14:23:58Z</time>
      </trkpt>
      <trkpt lat="44.05367" lon="0.12443">
        <ele>78</ele>
        <time>2022-09-20T14:24:05Z</time>
      </trkpt>
      <trkpt lat="44.05368" lon="0.12436">
        <ele>77.4</ele>
        <time>2022-09-20T14:24:08Z</time>
      </trkpt>
      <trkpt lat="44.0537" lon="0.12428">
        <ele>75.5</ele>
        <time>2022-09-20T14:24:15Z</time>
      </trkpt>
      <trkpt lat="44.05372" lon="0.12422">
        <ele>75.4</ele>
        <time>2022-09-20T14:24:18Z</time>
      </trkpt>
      <trkpt lat="44.05375" lon="0.12416">
        <ele>75.5</ele>
        <time>2022-09-20T14:24:21Z</time>
      </trkpt>
      <trkpt lat="44.05377" lon="0.12409">
        <ele>76.2</ele>
        <time>2022-09-20T14:24:24Z</time>
      </trkpt>
      <trkpt lat="44.0538" lon="0.12404">
        <ele>77</ele>
        <time>2022-09-20T14:24:28Z</time>
      </trkpt>
      <trkpt lat="44.05385" lon="0.124">
        <ele>77.2</ele>
        <time>2022-09-20T14:24:33Z</time>
      </trkpt>
      <trkpt lat="44.05387" lon="0.12395">
        <ele>76.6</ele>
        <time>2022-09-20T14:24:37Z</time>
      </trkpt>
      <trkpt lat="44.05391" lon="0.12389">
        <ele>76</ele>
        <time>2022-09-20T14:24:41Z</time>
      </trkpt>
      <trkpt lat="44.05394" lon="0.12383">
        <ele>75.1</ele>
        <time>2022-09-20T14:24:46Z</time>
      </trkpt>
      <trkpt lat="44.05397" lon="0.12379">
        <ele>74.6</ele>
        <time>2022-09-20T14:24:50Z</time>
      </trkpt>
      <trkpt lat="44.05401" lon="0.12374">
        <ele>74.1</ele>
        <time>2022-09-20T14:24:54Z</time>
      </trkpt>
      <trkpt lat="44.05404" lon="0.1237">
        <ele>73.8</ele>
        <time>2022-09-20T14:25:00Z</time>
      </trkpt>
      <trkpt lat="44.05408" lon="0.12365">
        <ele>74.5</ele>
        <time>2022-09-20T14:25:03Z</time>
      </trkpt>
      <trkpt lat="44.05411" lon="0.1236">
        <ele>75.4</ele>
        <time>2022-09-20T14:25:06Z</time>
      </trkpt>
      <trkpt lat="44.05415" lon="0.12354">
        <ele>76</ele>
        <time>2022-09-20T14:25:10Z</time>
      </trkpt>
      <trkpt lat="44.05418" lon="0.12349">
        <ele>76.4</ele>
        <time>2022-09-20T14:25:13Z</time>
      </trkpt>
      <trkpt lat="44.05424" lon="0.12341">
        <ele>75.7</ele>
        <time>2022-09-20T14:25:26Z</time>
      </trkpt>
      <trkpt lat="44.05427" lon="0.12336">
        <ele>75.3</ele>
        <time>2022-09-20T14:25:29Z</time>
      </trkpt>
      <trkpt lat="44.05432" lon="0.1233">
        <ele>74</ele>
        <time>2022-09-20T14:25:40Z</time>
      </trkpt>
      <trkpt lat="44.05436" lon="0.12323">
        <ele>73.4</ele>
        <time>2022-09-20T14:25:43Z</time>
      </trkpt>
      <trkpt lat="44.0544" lon="0.12315">
        <ele>72.2</ele>
        <time>2022-09-20T14:25:54Z</time>
      </trkpt>
      <trkpt lat="44.05444" lon="0.12309">
        <ele>71.8</ele>
        <time>2022-09-20T14:25:57Z</time>
      </trkpt>
      <trkpt lat="44.05449" lon="0.12301">
        <ele>71.1</ele>
        <time>2022-09-20T14:26:05Z</time>
      </trkpt>
      <trkpt lat="44.05453" lon="0.12295">
        <ele>71</ele>
        <time>2022-09-20T14:26:08Z</time>
      </trkpt>
      <trkpt lat="44.05457" lon="0.12287">
        <ele>71.3</ele>
        <time>2022-09-20T14:26:14Z</time>
      </trkpt>
      <trkpt lat="44.05461" lon="0.1228">
        <ele>72.1</ele>
        <time>2022-09-20T14:26:17Z</time>
      </trkpt>
      <trkpt lat="44.05464" lon="0.12274">
        <ele>72.9</ele>
        <time>2022-09-20T14:26:21Z</time>
      </trkpt>
      <trkpt lat="44.05467" lon="0.12269">
        <ele>73.2</ele>
        <time>2022-09-20T14:26:25Z</time>
      </trkpt>
      <trkpt lat="44.0547" lon="0.12264">
        <ele>72.1</ele>
        <time>2022-09-20T14:26:29Z</time>
      </trkpt>
      <trkpt lat="44.05474" lon="0.12259">
        <ele>71.5</ele>
        <time>2022-09-20T14:26:34Z</time>
      </trkpt>
      <trkpt lat="44.05479" lon="0.12251">
        <ele>70.8</ele>
        <time>2022-09-20T14:26:46Z</time>
      </trkpt>
      <trkpt lat="44.05482" lon="0.12243">
        <ele>70.9</ele>
        <time>2022-09-20T14:26:49Z</time>
      </trkpt>
      <trkpt lat="44.05485" lon="0.12238">
        <ele>71</ele>
        <time>2022-09-20T14:26:52Z</time>
      </trkpt>
      <trkpt lat="44.05488" lon="0.12233">
        <ele>71.3</ele>
        <time>2022-09-20T14:26:55Z</time>
      </trkpt>
      <trkpt lat="44.05492" lon="0.12228">
        <ele>71.7</ele>
        <time>2022-09-20T14:26:58Z</time>
      </trkpt>
      <trkpt lat="44.05496" lon="0.12224">
        <ele>72.2</ele>
        <time>2022-09-20T14:27:01Z</time>
      </trkpt>
      <trkpt lat="44.055" lon="0.12219">
        <ele>73.3</ele>
        <time>2022-09-20T14:27:04Z</time>
      </trkpt>
      <trkpt lat="44.05506" lon="0.12209">
        <ele>74.4</ele>
        <time>2022-09-20T14:27:17Z</time>
      </trkpt>
      <trkpt lat="44.05509" lon="0.12202">
        <ele>73.8</ele>
        <time>2022-09-20T14:27:20Z</time>
      </trkpt>
      <trkpt lat="44.05515" lon="0.12201">
        <ele>71.3</ele>
        <time>2022-09-20T14:27:31Z</time>
      </trkpt>
      <trkpt lat="44.05519" lon="0.12205">
        <ele>71</ele>
        <time>2022-09-20T14:27:34Z</time>
      </trkpt>
      <trkpt lat="44.05522" lon="0.12211">
        <ele>70.6</ele>
        <time>2022-09-20T14:27:38Z</time>
      </trkpt>
      <trkpt lat="44.05526" lon="0.12217">
        <ele>71.2</ele>
        <time>2022-09-20T14:27:42Z</time>
      </trkpt>
      <trkpt lat="44.05531" lon="0.12225">
        <ele>72</ele>
        <time>2022-09-20T14:27:54Z</time>
      </trkpt>
      <trkpt lat="44.05535" lon="0.12231">
        <ele>72</ele>
        <time>2022-09-20T14:27:57Z</time>
      </trkpt>
      <trkpt lat="44.05541" lon="0.12236">
        <ele>72.3</ele>
        <time>2022-09-20T14:28:07Z</time>
      </trkpt>
      <trkpt lat="44.05546" lon="0.12237">
        <ele>72.4</ele>
        <time>2022-09-20T14:28:11Z</time>
      </trkpt>
      <trkpt lat="44.05551" lon="0.12236">
        <ele>72.6</ele>
        <time>2022-09-20T14:28:20Z</time>
      </trkpt>
      <trkpt lat="44.05556" lon="0.12233">
        <ele>73</ele>
        <time>2022-09-20T14:28:23Z</time>
      </trkpt>
      <trkpt lat="44.05562" lon="0.12232">
        <ele>73.7</ele>
        <time>2022-09-20T14:28:31Z</time>
      </trkpt>
      <trkpt lat="44.05568" lon="0.12232">
        <ele>74.1</ele>
        <time>2022-09-20T14:28:34Z</time>
      </trkpt>
      <trkpt lat="44.05575" lon="0.12235">
        <ele>74.9</ele>
        <time>2022-09-20T14:28:43Z</time>
      </trkpt>
      <trkpt lat="44.05581" lon="0.12238">
        <ele>75.8</ele>
        <time>2022-09-20T14:28:46Z</time>
      </trkpt>
      <trkpt lat="44.05588" lon="0.1224">
        <ele>77.4</ele>
        <time>2022-09-20T14:28:56Z</time>
      </trkpt>
      <trkpt lat="44.05592" lon="0.12241">
        <ele>77.9</ele>
        <time>2022-09-20T14:29:00Z</time>
      </trkpt>
      <trkpt lat="44.05597" lon="0.12245">
        <ele>78.4</ele>
        <time>2022-09-20T14:29:14Z</time>
      </trkpt>
      <trkpt lat="44.05604" lon="0.1225">
        <ele>78.3</ele>
        <time>2022-09-20T14:29:17Z</time>
      </trkpt>
      <trkpt lat="44.05608" lon="0.12253">
        <ele>78.1</ele>
        <time>2022-09-20T14:29:24Z</time>
      </trkpt>
      <trkpt lat="44.05616" lon="0.12261">
        <ele>77.6</ele>
        <time>2022-09-20T14:29:27Z</time>
      </trkpt>
      <trkpt lat="44.0562" lon="0.12264">
        <ele>77.1</ele>
        <time>2022-09-20T14:29:35Z</time>
      </trkpt>
      <trkpt lat="44.05627" lon="0.12268">
        <ele>76.4</ele>
        <time>2022-09-20T14:29:38Z</time>
      </trkpt>
      <trkpt lat="44.05634" lon="0.12272">
        <ele>76</ele>
        <time>2022-09-20T14:29:41Z</time>
      </trkpt>
      <trkpt lat="44.05639" lon="0.12274">
        <ele>75.6</ele>
        <time>2022-09-20T14:29:44Z</time>
      </trkpt>
      <trkpt lat="44.05644" lon="0.12279">
        <ele>75.9</ele>
        <time>2022-09-20T14:29:49Z</time>
      </trkpt>
      <trkpt lat="44.05649" lon="0.12284">
        <ele>76.6</ele>
        <time>2022-09-20T14:29:52Z</time>
      </trkpt>
      <trkpt lat="44.05655" lon="0.1229">
        <ele>78.5</ele>
        <time>2022-09-20T14:30:02Z</time>
      </trkpt>
      <trkpt lat="44.0566" lon="0.12295">
        <ele>79.2</ele>
        <time>2022-09-20T14:30:05Z</time>
      </trkpt>
      <trkpt lat="44.05665" lon="0.12299">
        <ele>79.8</ele>
        <time>2022-09-20T14:30:09Z</time>
      </trkpt>
      <trkpt lat="44.05669" lon="0.12306">
        <ele>80.8</ele>
        <time>2022-09-20T14:30:22Z</time>
      </trkpt>
      <trkpt lat="44.05673" lon="0.12311">
        <ele>80.7</ele>
        <time>2022-09-20T14:30:25Z</time>
      </trkpt>
      <trkpt lat="44.05678" lon="0.12317">
        <ele>80.3</ele>
        <time>2022-09-20T14:30:42Z</time>
      </trkpt>
      <trkpt lat="44.05683" lon="0.12322">
        <ele>79.8</ele>
        <time>2022-09-20T14:30:45Z</time>
      </trkpt>
      <trkpt lat="44.05689" lon="0.12328">
        <ele>78.3</ele>
        <time>2022-09-20T14:31:00Z</time>
      </trkpt>
      <trkpt lat="44.05693" lon="0.12331">
        <ele>77.7</ele>
        <time>2022-09-20T14:31:03Z</time>
      </trkpt>
      <trkpt lat="44.05698" lon="0.12336">
        <ele>76.8</ele>
        <time>2022-09-20T14:31:48Z</time>
      </trkpt>
      <trkpt lat="44.05704" lon="0.1234">
        <ele>77</ele>
        <time>2022-09-20T14:31:51Z</time>
      </trkpt>
      <trkpt lat="44.05707" lon="0.12345">
        <ele>77.2</ele>
        <time>2022-09-20T14:31:54Z</time>
      </trkpt>
      <trkpt lat="44.05712" lon="0.12351">
        <ele>77.3</ele>
        <time>2022-09-20T14:32:09Z</time>
      </trkpt>
      <trkpt lat="44.05716" lon="0.12356">
        <ele>77</ele>
        <time>2022-09-20T14:32:12Z</time>
      </trkpt>
      <trkpt lat="44.05721" lon="0.12364">
        <ele>76</ele>
        <time>2022-09-20T14:32:21Z</time>
      </trkpt>
      <trkpt lat="44.05725" lon="0.12369">
        <ele>75.3</ele>
        <time>2022-09-20T14:32:24Z</time>
      </trkpt>
      <trkpt lat="44.0573" lon="0.12377">
        <ele>74.4</ele>
        <time>2022-09-20T14:32:34Z</time>
      </trkpt>
      <trkpt lat="44.05733" lon="0.12382">
        <ele>74.4</ele>
        <time>2022-09-20T14:32:37Z</time>
      </trkpt>
      <trkpt lat="44.05738" lon="0.1239">
        <ele>74</ele>
        <time>2022-09-20T14:32:53Z</time>
      </trkpt>
      <trkpt lat="44.05742" lon="0.12397">
        <ele>73.5</ele>
        <time>2022-09-20T14:32:56Z</time>
      </trkpt>
      <trkpt lat="44.05746" lon="0.12406">
        <ele>72.5</ele>
        <time>2022-09-20T14:33:04Z</time>
      </trkpt>
      <trkpt lat="44.0575" lon="0.12414">
        <ele>73</ele>
        <time>2022-09-20T14:33:07Z</time>
      </trkpt>
      <trkpt lat="44.05753" lon="0.12424">
        <ele>75.9</ele>
        <time>2022-09-20T14:33:15Z</time>
      </trkpt>
      <trkpt lat="44.05757" lon="0.12433">
        <ele>77.8</ele>
        <time>2022-09-20T14:33:18Z</time>
      </trkpt>
      <trkpt lat="44.05761" lon="0.12438">
        <ele>79.6</ele>
        <time>2022-09-20T14:33:21Z</time>
      </trkpt>
      <trkpt lat="44.05763" lon="0.12444">
        <ele>80.4</ele>
        <time>2022-09-20T14:33:25Z</time>
      </trkpt>
      <trkpt lat="44.05766" lon="0.12455">
        <ele>83</ele>
        <time>2022-09-20T14:33:39Z</time>
      </trkpt>
      <trkpt lat="44.05769" lon="0.1246">
        <ele>84.7</ele>
        <time>2022-09-20T14:33:42Z</time>
      </trkpt>
      <trkpt lat="44.05773" lon="0.12463">
        <ele>88.7</ele>
        <time>2022-09-20T14:33:47Z</time>
      </trkpt>
      <trkpt lat="44.05776" lon="0.12469">
        <ele>90.9</ele>
        <time>2022-09-20T14:33:57Z</time>
      </trkpt>
      <trkpt lat="44.05778" lon="0.12475">
        <ele>91.6</ele>
        <time>2022-09-20T14:34:02Z</time>
      </trkpt>
      <trkpt lat="44.05781" lon="0.12485">
        <ele>92.3</ele>
        <time>2022-09-20T14:34:05Z</time>
      </trkpt>
      <trkpt lat="44.05785" lon="0.12497">
        <ele>92.9</ele>
        <time>2022-09-20T14:34:16Z</time>
      </trkpt>
      <trkpt lat="44.05787" lon="0.12503">
        <ele>92.9</ele>
        <time>2022-09-20T14:34:19Z</time>
      </trkpt>
      <trkpt lat="44.05791" lon="0.12512">
        <ele>93.5</ele>
        <time>2022-09-20T14:34:27Z</time>
      </trkpt>
      <trkpt lat="44.05793" lon="0.12519">
        <ele>94.1</ele>
        <time>2022-09-20T14:34:30Z</time>
      </trkpt>
      <trkpt lat="44.05795" lon="0.12525">
        <ele>95.1</ele>
        <time>2022-09-20T14:34:33Z</time>
      </trkpt>
      <trkpt lat="44.05802" lon="0.12533">
        <ele>97.3</ele>
        <time>2022-09-20T14:34:41Z</time>
      </trkpt>
      <trkpt lat="44.05808" lon="0.12539">
        <ele>98.1</ele>
        <time>2022-09-20T14:34:44Z</time>
      </trkpt>
      <trkpt lat="44.05815" lon="0.12546">
        <ele>99.7</ele>
        <time>2022-09-20T14:34:54Z</time>
      </trkpt>
      <trkpt lat="44.05819" lon="0.1255">
        <ele>100.7</ele>
        <time>2022-09-20T14:34:57Z</time>
      </trkpt>
      <trkpt lat="44.05822" lon="0.12555">
        <ele>102.3</ele>
        <time>2022-09-20T14:35:00Z</time>
      </trkpt>
      <trkpt lat="44.05828" lon="0.12564">
        <ele>106.5</ele>
        <time>2022-09-20T14:35:10Z</time>
      </trkpt>
      <trkpt lat="44.05833" lon="0.12569">
        <ele>107.5</ele>
        <time>2022-09-20T14:35:13Z</time>
      </trkpt>
      <trkpt lat="44.05837" lon="0.12572">
        <ele>108.4</ele>
        <time>2022-09-20T14:35:17Z</time>
      </trkpt>
      <trkpt lat="44.05841" lon="0.12575">
        <ele>109.2</ele>
        <time>2022-09-20T14:35:21Z</time>
      </trkpt>
      <trkpt lat="44.05848" lon="0.12579">
        <ele>111.1</ele>
        <time>2022-09-20T14:35:39Z</time>
      </trkpt>
      <trkpt lat="44.05853" lon="0.12583">
        <ele>111.4</ele>
        <time>2022-09-20T14:35:42Z</time>
      </trkpt>
      <trkpt lat="44.05859" lon="0.12588">
        <ele>111.7</ele>
        <time>2022-09-20T14:35:47Z</time>
      </trkpt>
      <trkpt lat="44.05865" lon="0.12593">
        <ele>111.7</ele>
        <time>2022-09-20T14:35:50Z</time>
      </trkpt>
      <trkpt lat="44.05872" lon="0.12599">
        <ele>111.8</ele>
        <time>2022-09-20T14:35:58Z</time>
      </trkpt>
      <trkpt lat="44.05875" lon="0.12603">
        <ele>111.7</ele>
        <time>2022-09-20T14:36:01Z</time>
      </trkpt>
      <trkpt lat="44.05881" lon="0.12607">
        <ele>111.4</ele>
        <time>2022-09-20T14:36:10Z</time>
      </trkpt>
      <trkpt lat="44.05886" lon="0.12611">
        <ele>111</ele>
        <time>2022-09-20T14:36:13Z</time>
      </trkpt>
      <trkpt lat="44.0589" lon="0.12615">
        <ele>110</ele>
        <time>2022-09-20T14:36:17Z</time>
      </trkpt>
      <trkpt lat="44.05895" lon="0.12619">
        <ele>109.1</ele>
        <time>2022-09-20T14:36:20Z</time>
      </trkpt>
      <trkpt lat="44.05899" lon="0.12626">
        <ele>107</ele>
        <time>2022-09-20T14:36:32Z</time>
      </trkpt>
      <trkpt lat="44.05902" lon="0.12633">
        <ele>106.1</ele>
        <time>2022-09-20T14:36:35Z</time>
      </trkpt>
      <trkpt lat="44.05908" lon="0.12641">
        <ele>104.3</ele>
        <time>2022-09-20T14:36:42Z</time>
      </trkpt>
      <trkpt lat="44.05913" lon="0.12648">
        <ele>103.3</ele>
        <time>2022-09-20T14:36:45Z</time>
      </trkpt>
      <trkpt lat="44.05917" lon="0.12657">
        <ele>101.4</ele>
        <time>2022-09-20T14:36:54Z</time>
      </trkpt>
      <trkpt lat="44.0592" lon="0.12666">
        <ele>101.1</ele>
        <time>2022-09-20T14:36:57Z</time>
      </trkpt>
      <trkpt lat="44.05922" lon="0.12674">
        <ele>100.5</ele>
        <time>2022-09-20T14:37:04Z</time>
      </trkpt>
      <trkpt lat="44.05923" lon="0.12681">
        <ele>100.2</ele>
        <time>2022-09-20T14:37:07Z</time>
      </trkpt>
      <trkpt lat="44.05923" lon="0.1269">
        <ele>99.6</ele>
        <time>2022-09-20T14:37:16Z</time>
      </trkpt>
      <trkpt lat="44.05924" lon="0.12697">
        <ele>99.6</ele>
        <time>2022-09-20T14:37:19Z</time>
      </trkpt>
      <trkpt lat="44.05927" lon="0.12706">
        <ele>99.5</ele>
        <time>2022-09-20T14:37:32Z</time>
      </trkpt>
      <trkpt lat="44.0593" lon="0.12712">
        <ele>99.4</ele>
        <time>2022-09-20T14:37:35Z</time>
      </trkpt>
      <trkpt lat="44.05935" lon="0.12719">
        <ele>99.4</ele>
        <time>2022-09-20T14:37:44Z</time>
      </trkpt>
      <trkpt lat="44.05938" lon="0.12725">
        <ele>99.6</ele>
        <time>2022-09-20T14:37:47Z</time>
      </trkpt>
      <trkpt lat="44.05943" lon="0.12731">
        <ele>99.7</ele>
        <time>2022-09-20T14:38:00Z</time>
      </trkpt>
      <trkpt lat="44.05948" lon="0.12734">
        <ele>99.5</ele>
        <time>2022-09-20T14:38:03Z</time>
      </trkpt>
      <trkpt lat="44.05953" lon="0.12738">
        <ele>99</ele>
        <time>2022-09-20T14:38:11Z</time>
      </trkpt>
      <trkpt lat="44.05957" lon="0.12741">
        <ele>99</ele>
        <time>2022-09-20T14:38:15Z</time>
      </trkpt>
      <trkpt lat="44.05959" lon="0.12749">
        <ele>99.3</ele>
        <time>2022-09-20T14:38:31Z</time>
      </trkpt>
      <trkpt lat="44.05959" lon="0.12755">
        <ele>99.7</ele>
        <time>2022-09-20T14:38:36Z</time>
      </trkpt>
      <trkpt lat="44.05955" lon="0.1276">
        <ele>100.9</ele>
        <time>2022-09-20T14:39:06Z</time>
      </trkpt>
      <trkpt lat="44.05951" lon="0.12756">
        <ele>99.5</ele>
        <time>2022-09-20T14:41:23Z</time>
      </trkpt>
      <trkpt lat="44.05947" lon="0.12754">
        <ele>98.9</ele>
        <time>2022-09-20T14:41:29Z</time>
      </trkpt>
      <trkpt lat="44.05952" lon="0.12754">
        <ele>97.9</ele>
        <time>2022-09-20T14:43:55Z</time>
      </trkpt>
      <trkpt lat="44.05948" lon="0.12751">
        <ele>97.5</ele>
        <time>2022-09-20T14:44:43Z</time>
      </trkpt>
      <trkpt lat="44.05949" lon="0.12759">
        <ele>98</ele>
        <time>2022-09-20T14:45:47Z</time>
      </trkpt>
      <trkpt lat="44.05946" lon="0.1277">
        <ele>98.1</ele>
        <time>2022-09-20T14:45:59Z</time>
      </trkpt>
      <trkpt lat="44.05944" lon="0.12777">
        <ele>98.4</ele>
        <time>2022-09-20T14:46:02Z</time>
      </trkpt>
      <trkpt lat="44.05942" lon="0.12783">
        <ele>98.9</ele>
        <time>2022-09-20T14:46:09Z</time>
      </trkpt>
      <trkpt lat="44.05941" lon="0.12789">
        <ele>99</ele>
        <time>2022-09-20T14:46:12Z</time>
      </trkpt>
      <trkpt lat="44.05938" lon="0.12796">
        <ele>99.2</ele>
        <time>2022-09-20T14:46:18Z</time>
      </trkpt>
      <trkpt lat="44.05936" lon="0.12803">
        <ele>99</ele>
        <time>2022-09-20T14:46:22Z</time>
      </trkpt>
      <trkpt lat="44.05935" lon="0.12812">
        <ele>99.1</ele>
        <time>2022-09-20T14:46:34Z</time>
      </trkpt>
      <trkpt lat="44.05934" lon="0.12818">
        <ele>99.3</ele>
        <time>2022-09-20T14:46:37Z</time>
      </trkpt>
      <trkpt lat="44.05931" lon="0.12826">
        <ele>99.3</ele>
        <time>2022-09-20T14:46:45Z</time>
      </trkpt>
      <trkpt lat="44.05928" lon="0.12832">
        <ele>99.3</ele>
        <time>2022-09-20T14:46:48Z</time>
      </trkpt>
      <trkpt lat="44.05924" lon="0.12841">
        <ele>99.4</ele>
        <time>2022-09-20T14:46:55Z</time>
      </trkpt>
      <trkpt lat="44.05922" lon="0.12847">
        <ele>99.7</ele>
        <time>2022-09-20T14:46:58Z</time>
      </trkpt>
      <trkpt lat="44.0592" lon="0.12857">
        <ele>100.2</ele>
        <time>2022-09-20T14:47:06Z</time>
      </trkpt>
      <trkpt lat="44.05918" lon="0.12865">
        <ele>100.3</ele>
        <time>2022-09-20T14:47:09Z</time>
      </trkpt>
      <trkpt lat="44.05916" lon="0.12872">
        <ele>100.6</ele>
        <time>2022-09-20T14:47:13Z</time>
      </trkpt>
      <trkpt lat="44.05915" lon="0.12878">
        <ele>100.8</ele>
        <time>2022-09-20T14:47:16Z</time>
      </trkpt>
      <trkpt lat="44.05911" lon="0.12887">
        <ele>101</ele>
        <time>2022-09-20T14:47:25Z</time>
      </trkpt>
      <trkpt lat="44.05909" lon="0.12893">
        <ele>101</ele>
        <time>2022-09-20T14:47:28Z</time>
      </trkpt>
      <trkpt lat="44.05907" lon="0.12901">
        <ele>100.6</ele>
        <time>2022-09-20T14:47:37Z</time>
      </trkpt>
      <trkpt lat="44.05904" lon="0.12908">
        <ele>100.4</ele>
        <time>2022-09-20T14:47:40Z</time>
      </trkpt>
      <trkpt lat="44.05902" lon="0.12917">
        <ele>99.9</ele>
        <time>2022-09-20T14:47:50Z</time>
      </trkpt>
      <trkpt lat="44.05899" lon="0.12923">
        <ele>99.9</ele>
        <time>2022-09-20T14:47:53Z</time>
      </trkpt>
      <trkpt lat="44.05896" lon="0.12932">
        <ele>99.7</ele>
        <time>2022-09-20T14:48:03Z</time>
      </trkpt>
      <trkpt lat="44.05894" lon="0.12938">
        <ele>99.5</ele>
        <time>2022-09-20T14:48:07Z</time>
      </trkpt>
      <trkpt lat="44.0589" lon="0.12944">
        <ele>99.4</ele>
        <time>2022-09-20T14:48:16Z</time>
      </trkpt>
      <trkpt lat="44.05887" lon="0.12951">
        <ele>99.5</ele>
        <time>2022-09-20T14:48:19Z</time>
      </trkpt>
      <trkpt lat="44.05883" lon="0.12959">
        <ele>100.1</ele>
        <time>2022-09-20T14:48:30Z</time>
      </trkpt>
      <trkpt lat="44.05879" lon="0.12964">
        <ele>100.7</ele>
        <time>2022-09-20T14:48:33Z</time>
      </trkpt>
      <trkpt lat="44.05874" lon="0.12972">
        <ele>101.7</ele>
        <time>2022-09-20T14:48:41Z</time>
      </trkpt>
      <trkpt lat="44.0587" lon="0.12981">
        <ele>102.5</ele>
        <time>2022-09-20T14:48:44Z</time>
      </trkpt>
      <trkpt lat="44.05868" lon="0.12987">
        <ele>103.3</ele>
        <time>2022-09-20T14:48:47Z</time>
      </trkpt>
      <trkpt lat="44.05866" lon="0.13">
        <ele>105</ele>
        <time>2022-09-20T14:48:58Z</time>
      </trkpt>
      <trkpt lat="44.05864" lon="0.13009">
        <ele>106</ele>
        <time>2022-09-20T14:49:01Z</time>
      </trkpt>
      <trkpt lat="44.05862" lon="0.13015">
        <ele>107.5</ele>
        <time>2022-09-20T14:49:08Z</time>
      </trkpt>
      <trkpt lat="44.05861" lon="0.13022">
        <ele>108.4</ele>
        <time>2022-09-20T14:49:13Z</time>
      </trkpt>
      <trkpt lat="44.0586" lon="0.1303">
        <ele>108.9</ele>
        <time>2022-09-20T14:49:16Z</time>
      </trkpt>
      <trkpt lat="44.05861" lon="0.13036">
        <ele>109.9</ele>
        <time>2022-09-20T14:49:19Z</time>
      </trkpt>
      <trkpt lat="44.0586" lon="0.13047">
        <ele>111.8</ele>
        <time>2022-09-20T14:49:28Z</time>
      </trkpt>
      <trkpt lat="44.05858" lon="0.13054">
        <ele>112.5</ele>
        <time>2022-09-20T14:49:31Z</time>
      </trkpt>
      <trkpt lat="44.05855" lon="0.13063">
        <ele>113.5</ele>
        <time>2022-09-20T14:49:39Z</time>
      </trkpt>
      <trkpt lat="44.05854" lon="0.13071">
        <ele>113.7</ele>
        <time>2022-09-20T14:49:42Z</time>
      </trkpt>
      <trkpt lat="44.05854" lon="0.13079">
        <ele>113.6</ele>
        <time>2022-09-20T14:49:45Z</time>
      </trkpt>
      <trkpt lat="44.05854" lon="0.13086">
        <ele>113.5</ele>
        <time>2022-09-20T14:49:48Z</time>
      </trkpt>
      <trkpt lat="44.05853" lon="0.13097">
        <ele>114</ele>
        <time>2022-09-20T14:49:59Z</time>
      </trkpt>
      <trkpt lat="44.05852" lon="0.13104">
        <ele>114.2</ele>
        <time>2022-09-20T14:50:02Z</time>
      </trkpt>
      <trkpt lat="44.05851" lon="0.13115">
        <ele>114.7</ele>
        <time>2022-09-20T14:50:11Z</time>
      </trkpt>
      <trkpt lat="44.05849" lon="0.13122">
        <ele>115</ele>
        <time>2022-09-20T14:50:14Z</time>
      </trkpt>
      <trkpt lat="44.05846" lon="0.13129">
        <ele>115.5</ele>
        <time>2022-09-20T14:50:17Z</time>
      </trkpt>
      <trkpt lat="44.05844" lon="0.13136">
        <ele>116</ele>
        <time>2022-09-20T14:50:21Z</time>
      </trkpt>
      <trkpt lat="44.05843" lon="0.13143">
        <ele>116.3</ele>
        <time>2022-09-20T14:50:24Z</time>
      </trkpt>
      <trkpt lat="44.0584" lon="0.13152">
        <ele>116.2</ele>
        <time>2022-09-20T14:50:40Z</time>
      </trkpt>
      <trkpt lat="44.05838" lon="0.13157">
        <ele>116.1</ele>
        <time>2022-09-20T14:50:44Z</time>
      </trkpt>
      <trkpt lat="44.05844" lon="0.1316">
        <ele>117.5</ele>
        <time>2022-09-20T14:50:59Z</time>
      </trkpt>
      <trkpt lat="44.05848" lon="0.13161">
        <ele>119.4</ele>
        <time>2022-09-20T14:51:05Z</time>
      </trkpt>
      <trkpt lat="44.05853" lon="0.13164">
        <ele>120.9</ele>
        <time>2022-09-20T14:51:39Z</time>
      </trkpt>
      <trkpt lat="44.05857" lon="0.13166">
        <ele>121.1</ele>
        <time>2022-09-20T14:51:43Z</time>
      </trkpt>
      <trkpt lat="44.05862" lon="0.1317">
        <ele>121</ele>
        <time>2022-09-20T14:52:01Z</time>
      </trkpt>
      <trkpt lat="44.05866" lon="0.13173">
        <ele>120.6</ele>
        <time>2022-09-20T14:52:04Z</time>
      </trkpt>
      <trkpt lat="44.05873" lon="0.13175">
        <ele>119.5</ele>
        <time>2022-09-20T14:52:13Z</time>
      </trkpt>
      <trkpt lat="44.05879" lon="0.13176">
        <ele>118.9</ele>
        <time>2022-09-20T14:52:16Z</time>
      </trkpt>
      <trkpt lat="44.05884" lon="0.13178">
        <ele>118</ele>
        <time>2022-09-20T14:52:20Z</time>
      </trkpt>
      <trkpt lat="44.05888" lon="0.13181">
        <ele>117.2</ele>
        <time>2022-09-20T14:52:23Z</time>
      </trkpt>
      <trkpt lat="44.05888" lon="0.13174">
        <ele>117.4</ele>
        <time>2022-09-20T14:53:10Z</time>
      </trkpt>
      <trkpt lat="44.05881" lon="0.1317">
        <ele>120.9</ele>
        <time>2022-09-20T14:53:57Z</time>
      </trkpt>
      <trkpt lat="44.05877" lon="0.13173">
        <ele>121.3</ele>
        <time>2022-09-20T14:54:02Z</time>
      </trkpt>
      <trkpt lat="44.05873" lon="0.13169">
        <ele>121.9</ele>
        <time>2022-09-20T14:54:17Z</time>
      </trkpt>
      <trkpt lat="44.0587" lon="0.13164">
        <ele>122.1</ele>
        <time>2022-09-20T14:54:21Z</time>
      </trkpt>
      <trkpt lat="44.0587" lon="0.13171">
        <ele>121</ele>
        <time>2022-09-20T14:55:01Z</time>
      </trkpt>
      <trkpt lat="44.05875" lon="0.13175">
        <ele>119.3</ele>
        <time>2022-09-20T14:55:06Z</time>
      </trkpt>
      <trkpt lat="44.05876" lon="0.13182">
        <ele>119</ele>
        <time>2022-09-20T14:55:11Z</time>
      </trkpt>
      <trkpt lat="44.0587" lon="0.1318">
        <ele>119.5</ele>
        <time>2022-09-20T14:55:35Z</time>
      </trkpt>
      <trkpt lat="44.05864" lon="0.13176">
        <ele>119.8</ele>
        <time>2022-09-20T14:55:54Z</time>
      </trkpt>
      <trkpt lat="44.0586" lon="0.13174">
        <ele>119.3</ele>
        <time>2022-09-20T14:55:57Z</time>
      </trkpt>
      <trkpt lat="44.05858" lon="0.13167">
        <ele>118.3</ele>
        <time>2022-09-20T14:56:16Z</time>
      </trkpt>
      <trkpt lat="44.0586" lon="0.13161">
        <ele>118.2</ele>
        <time>2022-09-20T14:56:20Z</time>
      </trkpt>
      <trkpt lat="44.05854" lon="0.13161">
        <ele>117.6</ele>
        <time>2022-09-20T14:56:45Z</time>
      </trkpt>
      <trkpt lat="44.05846" lon="0.13161">
        <ele>116.5</ele>
        <time>2022-09-20T14:57:02Z</time>
      </trkpt>
      <trkpt lat="44.05841" lon="0.13161">
        <ele>116.1</ele>
        <time>2022-09-20T14:57:06Z</time>
      </trkpt>
      <trkpt lat="44.05836" lon="0.13163">
        <ele>116.1</ele>
        <time>2022-09-20T14:57:29Z</time>
      </trkpt>
      <trkpt lat="44.05832" lon="0.13167">
        <ele>116.4</ele>
        <time>2022-09-20T14:57:32Z</time>
      </trkpt>
      <trkpt lat="44.05826" lon="0.13173">
        <ele>117.1</ele>
        <time>2022-09-20T14:57:43Z</time>
      </trkpt>
      <trkpt lat="44.05822" lon="0.13177">
        <ele>117.2</ele>
        <time>2022-09-20T14:57:46Z</time>
      </trkpt>
      <trkpt lat="44.05817" lon="0.13184">
        <ele>117.9</ele>
        <time>2022-09-20T14:57:53Z</time>
      </trkpt>
      <trkpt lat="44.05813" lon="0.1319">
        <ele>118.7</ele>
        <time>2022-09-20T14:57:56Z</time>
      </trkpt>
      <trkpt lat="44.05809" lon="0.13199">
        <ele>120.4</ele>
        <time>2022-09-20T14:58:08Z</time>
      </trkpt>
      <trkpt lat="44.05805" lon="0.13205">
        <ele>120.7</ele>
        <time>2022-09-20T14:58:11Z</time>
      </trkpt>
      <trkpt lat="44.05799" lon="0.13211">
        <ele>121.1</ele>
        <time>2022-09-20T14:58:21Z</time>
      </trkpt>
      <trkpt lat="44.05795" lon="0.13217">
        <ele>121</ele>
        <time>2022-09-20T14:58:24Z</time>
      </trkpt>
      <trkpt lat="44.05791" lon="0.13225">
        <ele>120.3</ele>
        <time>2022-09-20T14:58:38Z</time>
      </trkpt>
      <trkpt lat="44.05787" lon="0.13232">
        <ele>119.8</ele>
        <time>2022-09-20T14:58:41Z</time>
      </trkpt>
      <trkpt lat="44.05783" lon="0.13242">
        <ele>119.3</ele>
        <time>2022-09-20T14:58:47Z</time>
      </trkpt>
      <trkpt lat="44.05778" lon="0.1325">
        <ele>119.4</ele>
        <time>2022-09-20T14:58:50Z</time>
      </trkpt>
      <trkpt lat="44.05774" lon="0.13255">
        <ele>119.4</ele>
        <time>2022-09-20T14:58:53Z</time>
      </trkpt>
      <trkpt lat="44.05771" lon="0.13262">
        <ele>119.7</ele>
        <time>2022-09-20T14:58:57Z</time>
      </trkpt>
      <trkpt lat="44.05768" lon="0.13267">
        <ele>120</ele>
        <time>2022-09-20T14:59:00Z</time>
      </trkpt>
      <trkpt lat="44.05765" lon="0.13273">
        <ele>120.3</ele>
        <time>2022-09-20T14:59:03Z</time>
      </trkpt>
      <trkpt lat="44.05764" lon="0.13284">
        <ele>120.9</ele>
        <time>2022-09-20T14:59:12Z</time>
      </trkpt>
      <trkpt lat="44.05763" lon="0.13291">
        <ele>121.2</ele>
        <time>2022-09-20T14:59:15Z</time>
      </trkpt>
      <trkpt lat="44.05761" lon="0.13299">
        <ele>122.1</ele>
        <time>2022-09-20T14:59:21Z</time>
      </trkpt>
      <trkpt lat="44.05758" lon="0.13307">
        <ele>123.1</ele>
        <time>2022-09-20T14:59:24Z</time>
      </trkpt>
      <trkpt lat="44.05755" lon="0.13316">
        <ele>124.9</ele>
        <time>2022-09-20T14:59:30Z</time>
      </trkpt>
      <trkpt lat="44.05752" lon="0.13326">
        <ele>126</ele>
        <time>2022-09-20T14:59:33Z</time>
      </trkpt>
      <trkpt lat="44.0575" lon="0.13336">
        <ele>127.7</ele>
        <time>2022-09-20T14:59:40Z</time>
      </trkpt>
      <trkpt lat="44.05749" lon="0.13343">
        <ele>128.4</ele>
        <time>2022-09-20T14:59:43Z</time>
      </trkpt>
      <trkpt lat="44.05745" lon="0.13354">
        <ele>129.7</ele>
        <time>2022-09-20T14:59:55Z</time>
      </trkpt>
      <trkpt lat="44.05743" lon="0.13362">
        <ele>129.8</ele>
        <time>2022-09-20T14:59:58Z</time>
      </trkpt>
      <trkpt lat="44.05741" lon="0.13371">
        <ele>129.8</ele>
        <time>2022-09-20T15:00:06Z</time>
      </trkpt>
      <trkpt lat="44.05739" lon="0.13378">
        <ele>129.6</ele>
        <time>2022-09-20T15:00:09Z</time>
      </trkpt>
      <trkpt lat="44.05738" lon="0.13384">
        <ele>129.3</ele>
        <time>2022-09-20T15:00:12Z</time>
      </trkpt>
      <trkpt lat="44.05737" lon="0.13394">
        <ele>129</ele>
        <time>2022-09-20T15:00:19Z</time>
      </trkpt>
      <trkpt lat="44.05737" lon="0.13401">
        <ele>129.1</ele>
        <time>2022-09-20T15:00:22Z</time>
      </trkpt>
      <trkpt lat="44.05735" lon="0.1341">
        <ele>128.7</ele>
        <time>2022-09-20T15:00:30Z</time>
      </trkpt>
      <trkpt lat="44.05732" lon="0.13418">
        <ele>128.2</ele>
        <time>2022-09-20T15:00:33Z</time>
      </trkpt>
      <trkpt lat="44.0573" lon="0.13426">
        <ele>128.2</ele>
        <time>2022-09-20T15:00:37Z</time>
      </trkpt>
      <trkpt lat="44.05727" lon="0.13434">
        <ele>127.9</ele>
        <time>2022-09-20T15:00:46Z</time>
      </trkpt>
      <trkpt lat="44.05725" lon="0.13441">
        <ele>127.4</ele>
        <time>2022-09-20T15:00:49Z</time>
      </trkpt>
      <trkpt lat="44.05722" lon="0.13451">
        <ele>126.9</ele>
        <time>2022-09-20T15:00:57Z</time>
      </trkpt>
      <trkpt lat="44.0572" lon="0.13458">
        <ele>126.8</ele>
        <time>2022-09-20T15:01:00Z</time>
      </trkpt>
      <trkpt lat="44.05717" lon="0.13467">
        <ele>126.7</ele>
        <time>2022-09-20T15:01:08Z</time>
      </trkpt>
      <trkpt lat="44.05713" lon="0.13476">
        <ele>126.5</ele>
        <time>2022-09-20T15:01:11Z</time>
      </trkpt>
      <trkpt lat="44.05712" lon="0.13482">
        <ele>126.7</ele>
        <time>2022-09-20T15:01:14Z</time>
      </trkpt>
      <trkpt lat="44.05712" lon="0.13489">
        <ele>127.3</ele>
        <time>2022-09-20T15:01:17Z</time>
      </trkpt>
      <trkpt lat="44.0571" lon="0.13499">
        <ele>128.1</ele>
        <time>2022-09-20T15:01:27Z</time>
      </trkpt>
      <trkpt lat="44.05708" lon="0.13507">
        <ele>128.5</ele>
        <time>2022-09-20T15:01:30Z</time>
      </trkpt>
      <trkpt lat="44.05706" lon="0.13517">
        <ele>129.3</ele>
        <time>2022-09-20T15:01:39Z</time>
      </trkpt>
      <trkpt lat="44.05703" lon="0.13525">
        <ele>129.6</ele>
        <time>2022-09-20T15:01:42Z</time>
      </trkpt>
      <trkpt lat="44.05699" lon="0.13534">
        <ele>130.2</ele>
        <time>2022-09-20T15:01:53Z</time>
      </trkpt>
      <trkpt lat="44.05696" lon="0.13543">
        <ele>131.1</ele>
        <time>2022-09-20T15:01:56Z</time>
      </trkpt>
      <trkpt lat="44.05692" lon="0.13553">
        <ele>132.6</ele>
        <time>2022-09-20T15:02:04Z</time>
      </trkpt>
      <trkpt lat="44.0569" lon="0.13559">
        <ele>133</ele>
        <time>2022-09-20T15:02:07Z</time>
      </trkpt>
      <trkpt lat="44.05688" lon="0.13568">
        <ele>133.7</ele>
        <time>2022-09-20T15:02:16Z</time>
      </trkpt>
      <trkpt lat="44.05686" lon="0.13576">
        <ele>134</ele>
        <time>2022-09-20T15:02:19Z</time>
      </trkpt>
      <trkpt lat="44.05683" lon="0.13584">
        <ele>134.7</ele>
        <time>2022-09-20T15:02:28Z</time>
      </trkpt>
      <trkpt lat="44.05679" lon="0.1359">
        <ele>135.2</ele>
        <time>2022-09-20T15:02:31Z</time>
      </trkpt>
      <trkpt lat="44.05675" lon="0.13598">
        <ele>135.7</ele>
        <time>2022-09-20T15:02:40Z</time>
      </trkpt>
      <trkpt lat="44.05672" lon="0.13604">
        <ele>135.5</ele>
        <time>2022-09-20T15:02:43Z</time>
      </trkpt>
      <trkpt lat="44.05667" lon="0.13611">
        <ele>135</ele>
        <time>2022-09-20T15:02:51Z</time>
      </trkpt>
      <trkpt lat="44.05663" lon="0.13617">
        <ele>134.8</ele>
        <time>2022-09-20T15:02:54Z</time>
      </trkpt>
      <trkpt lat="44.05657" lon="0.13624">
        <ele>134.8</ele>
        <time>2022-09-20T15:03:01Z</time>
      </trkpt>
      <trkpt lat="44.0565" lon="0.13631">
        <ele>134.9</ele>
        <time>2022-09-20T15:03:04Z</time>
      </trkpt>
      <trkpt lat="44.05646" lon="0.13636">
        <ele>135.2</ele>
        <time>2022-09-20T15:03:07Z</time>
      </trkpt>
      <trkpt lat="44.05643" lon="0.13644">
        <ele>135.8</ele>
        <time>2022-09-20T15:03:22Z</time>
      </trkpt>
      <trkpt lat="44.05641" lon="0.13651">
        <ele>136.2</ele>
        <time>2022-09-20T15:03:25Z</time>
      </trkpt>
      <trkpt lat="44.05638" lon="0.13661">
        <ele>136.8</ele>
        <time>2022-09-20T15:03:34Z</time>
      </trkpt>
      <trkpt lat="44.05634" lon="0.13668">
        <ele>136.7</ele>
        <time>2022-09-20T15:03:37Z</time>
      </trkpt>
      <trkpt lat="44.0563" lon="0.13677">
        <ele>136.4</ele>
        <time>2022-09-20T15:03:45Z</time>
      </trkpt>
      <trkpt lat="44.05627" lon="0.13685">
        <ele>136.2</ele>
        <time>2022-09-20T15:03:48Z</time>
      </trkpt>
      <trkpt lat="44.05623" lon="0.13694">
        <ele>136.3</ele>
        <time>2022-09-20T15:03:53Z</time>
      </trkpt>
      <trkpt lat="44.05619" lon="0.13701">
        <ele>136.6</ele>
        <time>2022-09-20T15:03:56Z</time>
      </trkpt>
      <trkpt lat="44.05615" lon="0.13711">
        <ele>137.5</ele>
        <time>2022-09-20T15:04:05Z</time>
      </trkpt>
      <trkpt lat="44.05613" lon="0.13719">
        <ele>138</ele>
        <time>2022-09-20T15:04:08Z</time>
      </trkpt>
      <trkpt lat="44.05612" lon="0.13729">
        <ele>139.2</ele>
        <time>2022-09-20T15:04:13Z</time>
      </trkpt>
      <trkpt lat="44.05612" lon="0.13738">
        <ele>140.5</ele>
        <time>2022-09-20T15:04:16Z</time>
      </trkpt>
      <trkpt lat="44.0561" lon="0.13748">
        <ele>143.1</ele>
        <time>2022-09-20T15:04:26Z</time>
      </trkpt>
      <trkpt lat="44.05608" lon="0.13755">
        <ele>143.8</ele>
        <time>2022-09-20T15:04:29Z</time>
      </trkpt>
      <trkpt lat="44.05604" lon="0.13763">
        <ele>144.4</ele>
        <time>2022-09-20T15:04:37Z</time>
      </trkpt>
      <trkpt lat="44.05602" lon="0.13769">
        <ele>144.2</ele>
        <time>2022-09-20T15:04:40Z</time>
      </trkpt>
      <trkpt lat="44.056" lon="0.13779">
        <ele>143.6</ele>
        <time>2022-09-20T15:04:49Z</time>
      </trkpt>
      <trkpt lat="44.056" lon="0.13787">
        <ele>143.2</ele>
        <time>2022-09-20T15:04:52Z</time>
      </trkpt>
      <trkpt lat="44.05599" lon="0.13796">
        <ele>142.6</ele>
        <time>2022-09-20T15:05:00Z</time>
      </trkpt>
      <trkpt lat="44.05598" lon="0.13804">
        <ele>142.4</ele>
        <time>2022-09-20T15:05:03Z</time>
      </trkpt>
      <trkpt lat="44.05597" lon="0.13813">
        <ele>141.9</ele>
        <time>2022-09-20T15:05:11Z</time>
      </trkpt>
      <trkpt lat="44.05595" lon="0.13823">
        <ele>141.8</ele>
        <time>2022-09-20T15:05:14Z</time>
      </trkpt>
      <trkpt lat="44.05593" lon="0.13833">
        <ele>142.2</ele>
        <time>2022-09-20T15:05:21Z</time>
      </trkpt>
      <trkpt lat="44.05592" lon="0.1384">
        <ele>142.6</ele>
        <time>2022-09-20T15:05:24Z</time>
      </trkpt>
      <trkpt lat="44.0559" lon="0.13849">
        <ele>143.1</ele>
        <time>2022-09-20T15:05:32Z</time>
      </trkpt>
      <trkpt lat="44.05589" lon="0.13856">
        <ele>143.2</ele>
        <time>2022-09-20T15:05:35Z</time>
      </trkpt>
      <trkpt lat="44.05588" lon="0.13865">
        <ele>143.4</ele>
        <time>2022-09-20T15:05:43Z</time>
      </trkpt>
      <trkpt lat="44.05587" lon="0.13872">
        <ele>143.6</ele>
        <time>2022-09-20T15:05:46Z</time>
      </trkpt>
      <trkpt lat="44.05588" lon="0.13882">
        <ele>143.7</ele>
        <time>2022-09-20T15:05:55Z</time>
      </trkpt>
      <trkpt lat="44.05588" lon="0.13894">
        <ele>142.8</ele>
        <time>2022-09-20T15:05:58Z</time>
      </trkpt>
      <trkpt lat="44.05587" lon="0.13906">
        <ele>141</ele>
        <time>2022-09-20T15:06:07Z</time>
      </trkpt>
      <trkpt lat="44.05587" lon="0.13915">
        <ele>140</ele>
        <time>2022-09-20T15:06:10Z</time>
      </trkpt>
      <trkpt lat="44.0559" lon="0.13924">
        <ele>137.8</ele>
        <time>2022-09-20T15:06:19Z</time>
      </trkpt>
      <trkpt lat="44.05593" lon="0.13932">
        <ele>137.4</ele>
        <time>2022-09-20T15:06:22Z</time>
      </trkpt>
      <trkpt lat="44.05596" lon="0.13941">
        <ele>136.4</ele>
        <time>2022-09-20T15:06:31Z</time>
      </trkpt>
      <trkpt lat="44.05599" lon="0.13948">
        <ele>136.1</ele>
        <time>2022-09-20T15:06:34Z</time>
      </trkpt>
      <trkpt lat="44.05602" lon="0.13956">
        <ele>136</ele>
        <time>2022-09-20T15:06:42Z</time>
      </trkpt>
      <trkpt lat="44.05604" lon="0.13964">
        <ele>136.5</ele>
        <time>2022-09-20T15:06:45Z</time>
      </trkpt>
      <trkpt lat="44.05606" lon="0.13973">
        <ele>137</ele>
        <time>2022-09-20T15:06:56Z</time>
      </trkpt>
      <trkpt lat="44.05608" lon="0.1398">
        <ele>136.7</ele>
        <time>2022-09-20T15:06:59Z</time>
      </trkpt>
      <trkpt lat="44.0561" lon="0.13989">
        <ele>135.6</ele>
        <time>2022-09-20T15:07:07Z</time>
      </trkpt>
      <trkpt lat="44.05613" lon="0.13998">
        <ele>135</ele>
        <time>2022-09-20T15:07:10Z</time>
      </trkpt>
      <trkpt lat="44.05614" lon="0.14005">
        <ele>134.3</ele>
        <time>2022-09-20T15:07:14Z</time>
      </trkpt>
      <trkpt lat="44.05617" lon="0.14012">
        <ele>134.4</ele>
        <time>2022-09-20T15:07:17Z</time>
      </trkpt>
      <trkpt lat="44.05617" lon="0.14019">
        <ele>134.6</ele>
        <time>2022-09-20T15:07:20Z</time>
      </trkpt>
      <trkpt lat="44.05615" lon="0.14025">
        <ele>135.2</ele>
        <time>2022-09-20T15:07:23Z</time>
      </trkpt>
      <trkpt lat="44.05614" lon="0.14031">
        <ele>136.1</ele>
        <time>2022-09-20T15:07:26Z</time>
      </trkpt>
      <trkpt lat="44.05613" lon="0.14038">
        <ele>137.4</ele>
        <time>2022-09-20T15:07:29Z</time>
      </trkpt>
      <trkpt lat="44.05611" lon="0.14046">
        <ele>139.2</ele>
        <time>2022-09-20T15:07:33Z</time>
      </trkpt>
      <trkpt lat="44.0561" lon="0.14053">
        <ele>141</ele>
        <time>2022-09-20T15:07:38Z</time>
      </trkpt>
      <trkpt lat="44.05607" lon="0.14059">
        <ele>142</ele>
        <time>2022-09-20T15:07:42Z</time>
      </trkpt>
      <trkpt lat="44.05604" lon="0.14064">
        <ele>143.1</ele>
        <time>2022-09-20T15:07:49Z</time>
      </trkpt>
      <trkpt lat="44.05601" lon="0.14069">
        <ele>143.4</ele>
        <time>2022-09-20T15:07:55Z</time>
      </trkpt>
      <trkpt lat="44.05598" lon="0.14076">
        <ele>143.4</ele>
        <time>2022-09-20T15:07:58Z</time>
      </trkpt>
      <trkpt lat="44.05594" lon="0.14085">
        <ele>143.6</ele>
        <time>2022-09-20T15:08:07Z</time>
      </trkpt>
      <trkpt lat="44.05591" lon="0.14092">
        <ele>143.8</ele>
        <time>2022-09-20T15:08:10Z</time>
      </trkpt>
      <trkpt lat="44.05587" lon="0.141">
        <ele>143.9</ele>
        <time>2022-09-20T15:08:18Z</time>
      </trkpt>
      <trkpt lat="44.05583" lon="0.14108">
        <ele>144.1</ele>
        <time>2022-09-20T15:08:21Z</time>
      </trkpt>
      <trkpt lat="44.0558" lon="0.14114">
        <ele>144.4</ele>
        <time>2022-09-20T15:08:24Z</time>
      </trkpt>
      <trkpt lat="44.05576" lon="0.14123">
        <ele>144.7</ele>
        <time>2022-09-20T15:08:33Z</time>
      </trkpt>
      <trkpt lat="44.05573" lon="0.1413">
        <ele>144.8</ele>
        <time>2022-09-20T15:08:36Z</time>
      </trkpt>
      <trkpt lat="44.05569" lon="0.14136">
        <ele>144.5</ele>
        <time>2022-09-20T15:08:40Z</time>
      </trkpt>
      <trkpt lat="44.05565" lon="0.14143">
        <ele>144</ele>
        <time>2022-09-20T15:08:45Z</time>
      </trkpt>
      <trkpt lat="44.05562" lon="0.1415">
        <ele>143.7</ele>
        <time>2022-09-20T15:08:48Z</time>
      </trkpt>
      <trkpt lat="44.05558" lon="0.14156">
        <ele>143.6</ele>
        <time>2022-09-20T15:08:51Z</time>
      </trkpt>
      <trkpt lat="44.05556" lon="0.14162">
        <ele>143.9</ele>
        <time>2022-09-20T15:08:54Z</time>
      </trkpt>
      <trkpt lat="44.05553" lon="0.1417">
        <ele>144.2</ele>
        <time>2022-09-20T15:09:03Z</time>
      </trkpt>
      <trkpt lat="44.05551" lon="0.14177">
        <ele>144.3</ele>
        <time>2022-09-20T15:09:06Z</time>
      </trkpt>
      <trkpt lat="44.05548" lon="0.14186">
        <ele>144.5</ele>
        <time>2022-09-20T15:09:13Z</time>
      </trkpt>
      <trkpt lat="44.05546" lon="0.14193">
        <ele>144.8</ele>
        <time>2022-09-20T15:09:16Z</time>
      </trkpt>
      <trkpt lat="44.05544" lon="0.14203">
        <ele>145</ele>
        <time>2022-09-20T15:09:25Z</time>
      </trkpt>
      <trkpt lat="44.05544" lon="0.14212">
        <ele>145</ele>
        <time>2022-09-20T15:09:28Z</time>
      </trkpt>
      <trkpt lat="44.05543" lon="0.14219">
        <ele>145.2</ele>
        <time>2022-09-20T15:09:31Z</time>
      </trkpt>
      <trkpt lat="44.05541" lon="0.14231">
        <ele>145.2</ele>
        <time>2022-09-20T15:09:41Z</time>
      </trkpt>
      <trkpt lat="44.0554" lon="0.14238">
        <ele>145</ele>
        <time>2022-09-20T15:09:44Z</time>
      </trkpt>
      <trkpt lat="44.05538" lon="0.14248">
        <ele>144.8</ele>
        <time>2022-09-20T15:09:55Z</time>
      </trkpt>
      <trkpt lat="44.05536" lon="0.14254">
        <ele>144.7</ele>
        <time>2022-09-20T15:09:58Z</time>
      </trkpt>
      <trkpt lat="44.05533" lon="0.14262">
        <ele>144.7</ele>
        <time>2022-09-20T15:14:45Z</time>
      </trkpt>
      <trkpt lat="44.0553" lon="0.14266">
        <ele>145</ele>
        <time>2022-09-20T15:14:48Z</time>
      </trkpt>
      <trkpt lat="44.05524" lon="0.14264">
        <ele>145.4</ele>
        <time>2022-09-20T15:14:58Z</time>
      </trkpt>
      <trkpt lat="44.05519" lon="0.14261">
        <ele>145.3</ele>
        <time>2022-09-20T15:15:01Z</time>
      </trkpt>
      <trkpt lat="44.05515" lon="0.14257">
        <ele>145.4</ele>
        <time>2022-09-20T15:15:05Z</time>
      </trkpt>
      <trkpt lat="44.0551" lon="0.14254">
        <ele>145.8</ele>
        <time>2022-09-20T15:15:09Z</time>
      </trkpt>
      <trkpt lat="44.05502" lon="0.1425">
        <ele>146.1</ele>
        <time>2022-09-20T15:15:19Z</time>
      </trkpt>
      <trkpt lat="44.05495" lon="0.14248">
        <ele>145.9</ele>
        <time>2022-09-20T15:15:22Z</time>
      </trkpt>
      <trkpt lat="44.0549" lon="0.14247">
        <ele>145.7</ele>
        <time>2022-09-20T15:15:26Z</time>
      </trkpt>
      <trkpt lat="44.05485" lon="0.14247">
        <ele>145.8</ele>
        <time>2022-09-20T15:15:29Z</time>
      </trkpt>
      <trkpt lat="44.0548" lon="0.14248">
        <ele>145.7</ele>
        <time>2022-09-20T15:15:32Z</time>
      </trkpt>
      <trkpt lat="44.05474" lon="0.14248">
        <ele>146</ele>
        <time>2022-09-20T15:15:36Z</time>
      </trkpt>
      <trkpt lat="44.05469" lon="0.14248">
        <ele>146.6</ele>
        <time>2022-09-20T15:15:40Z</time>
      </trkpt>
      <trkpt lat="44.05465" lon="0.14247">
        <ele>147.3</ele>
        <time>2022-09-20T15:15:44Z</time>
      </trkpt>
      <trkpt lat="44.0546" lon="0.14247">
        <ele>147.5</ele>
        <time>2022-09-20T15:15:48Z</time>
      </trkpt>
      <trkpt lat="44.05455" lon="0.14246">
        <ele>147.3</ele>
        <time>2022-09-20T15:15:52Z</time>
      </trkpt>
      <trkpt lat="44.0545" lon="0.14245">
        <ele>147.3</ele>
        <time>2022-09-20T15:15:56Z</time>
      </trkpt>
      <trkpt lat="44.05445" lon="0.14244">
        <ele>147.2</ele>
        <time>2022-09-20T15:16:00Z</time>
      </trkpt>
      <trkpt lat="44.0544" lon="0.14244">
        <ele>147.4</ele>
        <time>2022-09-20T15:16:04Z</time>
      </trkpt>
      <trkpt lat="44.05435" lon="0.14244">
        <ele>147.9</ele>
        <time>2022-09-20T15:16:08Z</time>
      </trkpt>
      <trkpt lat="44.05429" lon="0.14245">
        <ele>148.2</ele>
        <time>2022-09-20T15:16:12Z</time>
      </trkpt>
      <trkpt lat="44.05424" lon="0.14244">
        <ele>148.3</ele>
        <time>2022-09-20T15:16:15Z</time>
      </trkpt>
      <trkpt lat="44.0542" lon="0.14244">
        <ele>148.6</ele>
        <time>2022-09-20T15:16:18Z</time>
      </trkpt>
      <trkpt lat="44.05414" lon="0.14243">
        <ele>149.2</ele>
        <time>2022-09-20T15:16:22Z</time>
      </trkpt>
      <trkpt lat="44.05409" lon="0.14242">
        <ele>149.6</ele>
        <time>2022-09-20T15:16:27Z</time>
      </trkpt>
      <trkpt lat="44.05404" lon="0.14242">
        <ele>149.4</ele>
        <time>2022-09-20T15:16:31Z</time>
      </trkpt>
      <trkpt lat="44.05399" lon="0.14242">
        <ele>148.9</ele>
        <time>2022-09-20T15:16:35Z</time>
      </trkpt>
      <trkpt lat="44.05394" lon="0.14242">
        <ele>147.9</ele>
        <time>2022-09-20T15:16:40Z</time>
      </trkpt>
      <trkpt lat="44.05389" lon="0.14241">
        <ele>147.1</ele>
        <time>2022-09-20T15:16:44Z</time>
      </trkpt>
      <trkpt lat="44.05379" lon="0.1424">
        <ele>145.2</ele>
        <time>2022-09-20T15:16:56Z</time>
      </trkpt>
      <trkpt lat="44.05373" lon="0.1424">
        <ele>144.4</ele>
        <time>2022-09-20T15:16:59Z</time>
      </trkpt>
      <trkpt lat="44.05367" lon="0.1424">
        <ele>143.5</ele>
        <time>2022-09-20T15:17:02Z</time>
      </trkpt>
      <trkpt lat="44.05361" lon="0.1424">
        <ele>142.6</ele>
        <time>2022-09-20T15:17:06Z</time>
      </trkpt>
      <trkpt lat="44.05357" lon="0.14239">
        <ele>142</ele>
        <time>2022-09-20T15:17:09Z</time>
      </trkpt>
      <trkpt lat="44.05351" lon="0.14239">
        <ele>141.7</ele>
        <time>2022-09-20T15:17:13Z</time>
      </trkpt>
      <trkpt lat="44.05346" lon="0.14238">
        <ele>141.9</ele>
        <time>2022-09-20T15:17:17Z</time>
      </trkpt>
      <trkpt lat="44.0534" lon="0.14237">
        <ele>141.8</ele>
        <time>2022-09-20T15:17:22Z</time>
      </trkpt>
      <trkpt lat="44.05334" lon="0.14237">
        <ele>141.3</ele>
        <time>2022-09-20T15:17:31Z</time>
      </trkpt>
      <trkpt lat="44.05328" lon="0.14236">
        <ele>141</ele>
        <time>2022-09-20T15:17:34Z</time>
      </trkpt>
      <trkpt lat="44.05323" lon="0.14235">
        <ele>140.5</ele>
        <time>2022-09-20T15:17:38Z</time>
      </trkpt>
      <trkpt lat="44.05318" lon="0.14234">
        <ele>140.4</ele>
        <time>2022-09-20T15:17:41Z</time>
      </trkpt>
      <trkpt lat="44.05313" lon="0.14233">
        <ele>140.1</ele>
        <time>2022-09-20T15:17:46Z</time>
      </trkpt>
      <trkpt lat="44.05308" lon="0.14231">
        <ele>139.9</ele>
        <time>2022-09-20T15:17:49Z</time>
      </trkpt>
      <trkpt lat="44.05298" lon="0.14229">
        <ele>139.1</ele>
        <time>2022-09-20T15:17:59Z</time>
      </trkpt>
      <trkpt lat="44.05291" lon="0.14227">
        <ele>138.8</ele>
        <time>2022-09-20T15:18:02Z</time>
      </trkpt>
      <trkpt lat="44.05285" lon="0.14225">
        <ele>138.7</ele>
        <time>2022-09-20T15:18:06Z</time>
      </trkpt>
      <trkpt lat="44.0528" lon="0.14224">
        <ele>138.4</ele>
        <time>2022-09-20T15:18:11Z</time>
      </trkpt>
      <trkpt lat="44.05274" lon="0.14225">
        <ele>137.8</ele>
        <time>2022-09-20T15:18:17Z</time>
      </trkpt>
      <trkpt lat="44.05269" lon="0.14225">
        <ele>137.4</ele>
        <time>2022-09-20T15:18:20Z</time>
      </trkpt>
      <trkpt lat="44.05263" lon="0.14228">
        <ele>136.7</ele>
        <time>2022-09-20T15:18:25Z</time>
      </trkpt>
      <trkpt lat="44.0526" lon="0.14232">
        <ele>136.4</ele>
        <time>2022-09-20T15:18:28Z</time>
      </trkpt>
      <trkpt lat="44.05256" lon="0.14236">
        <ele>136.7</ele>
        <time>2022-09-20T15:18:32Z</time>
      </trkpt>
      <trkpt lat="44.05252" lon="0.1424">
        <ele>136.9</ele>
        <time>2022-09-20T15:18:36Z</time>
      </trkpt>
      <trkpt lat="44.05249" lon="0.14245">
        <ele>136.9</ele>
        <time>2022-09-20T15:18:39Z</time>
      </trkpt>
      <trkpt lat="44.05244" lon="0.14253">
        <ele>135.8</ele>
        <time>2022-09-20T15:18:49Z</time>
      </trkpt>
      <trkpt lat="44.0524" lon="0.14259">
        <ele>135.4</ele>
        <time>2022-09-20T15:18:52Z</time>
      </trkpt>
      <trkpt lat="44.05236" lon="0.14264">
        <ele>135.2</ele>
        <time>2022-09-20T15:18:55Z</time>
      </trkpt>
      <trkpt lat="44.05231" lon="0.14271">
        <ele>135.2</ele>
        <time>2022-09-20T15:19:03Z</time>
      </trkpt>
      <trkpt lat="44.05227" lon="0.14278">
        <ele>135.3</ele>
        <time>2022-09-20T15:19:06Z</time>
      </trkpt>
      <trkpt lat="44.05222" lon="0.14286">
        <ele>135.6</ele>
        <time>2022-09-20T15:19:15Z</time>
      </trkpt>
      <trkpt lat="44.05219" lon="0.14291">
        <ele>135.8</ele>
        <time>2022-09-20T15:19:19Z</time>
      </trkpt>
      <trkpt lat="44.05215" lon="0.14298">
        <ele>137.8</ele>
        <time>2022-09-20T15:20:15Z</time>
      </trkpt>
      <trkpt lat="44.05213" lon="0.14304">
        <ele>138.8</ele>
        <time>2022-09-20T15:20:18Z</time>
      </trkpt>
      <trkpt lat="44.05217" lon="0.14308">
        <ele>140.1</ele>
        <time>2022-09-20T15:20:37Z</time>
      </trkpt>
      <trkpt lat="44.05222" lon="0.14311">
        <ele>139.4</ele>
        <time>2022-09-20T15:20:40Z</time>
      </trkpt>
      <trkpt lat="44.05227" lon="0.14313">
        <ele>138.7</ele>
        <time>2022-09-20T15:20:43Z</time>
      </trkpt>
      <trkpt lat="44.05231" lon="0.14316">
        <ele>138</ele>
        <time>2022-09-20T15:20:47Z</time>
      </trkpt>
      <trkpt lat="44.05238" lon="0.14318">
        <ele>136.9</ele>
        <time>2022-09-20T15:20:57Z</time>
      </trkpt>
      <trkpt lat="44.05243" lon="0.1432">
        <ele>136.5</ele>
        <time>2022-09-20T15:21:00Z</time>
      </trkpt>
      <trkpt lat="44.05249" lon="0.14323">
        <ele>136.3</ele>
        <time>2022-09-20T15:21:05Z</time>
      </trkpt>
      <trkpt lat="44.05253" lon="0.14325">
        <ele>135.9</ele>
        <time>2022-09-20T15:21:09Z</time>
      </trkpt>
      <trkpt lat="44.05258" lon="0.14327">
        <ele>135.4</ele>
        <time>2022-09-20T15:21:14Z</time>
      </trkpt>
      <trkpt lat="44.05263" lon="0.14329">
        <ele>134.8</ele>
        <time>2022-09-20T15:21:20Z</time>
      </trkpt>
      <trkpt lat="44.05267" lon="0.14332">
        <ele>135.3</ele>
        <time>2022-09-20T15:21:23Z</time>
      </trkpt>
      <trkpt lat="44.05272" lon="0.14334">
        <ele>135.9</ele>
        <time>2022-09-20T15:21:27Z</time>
      </trkpt>
      <trkpt lat="44.05277" lon="0.14336">
        <ele>136.3</ele>
        <time>2022-09-20T15:21:33Z</time>
      </trkpt>
      <trkpt lat="44.05283" lon="0.14338">
        <ele>136.5</ele>
        <time>2022-09-20T15:21:36Z</time>
      </trkpt>
      <trkpt lat="44.05288" lon="0.14341">
        <ele>137.1</ele>
        <time>2022-09-20T15:21:40Z</time>
      </trkpt>
      <trkpt lat="44.05293" lon="0.14344">
        <ele>138.1</ele>
        <time>2022-09-20T15:21:45Z</time>
      </trkpt>
      <trkpt lat="44.053" lon="0.14349">
        <ele>139.4</ele>
        <time>2022-09-20T15:21:56Z</time>
      </trkpt>
      <trkpt lat="44.05304" lon="0.14352">
        <ele>139.8</ele>
        <time>2022-09-20T15:21:59Z</time>
      </trkpt>
      <trkpt lat="44.0531" lon="0.14355">
        <ele>140</ele>
        <time>2022-09-20T15:22:06Z</time>
      </trkpt>
      <trkpt lat="44.05315" lon="0.14358">
        <ele>139.7</ele>
        <time>2022-09-20T15:22:09Z</time>
      </trkpt>
      <trkpt lat="44.0532" lon="0.1436">
        <ele>139.4</ele>
        <time>2022-09-20T15:22:13Z</time>
      </trkpt>
      <trkpt lat="44.05325" lon="0.14363">
        <ele>138.9</ele>
        <time>2022-09-20T15:22:18Z</time>
      </trkpt>
      <trkpt lat="44.05329" lon="0.14367">
        <ele>138.8</ele>
        <time>2022-09-20T15:22:23Z</time>
      </trkpt>
      <trkpt lat="44.05334" lon="0.14372">
        <ele>139</ele>
        <time>2022-09-20T15:22:27Z</time>
      </trkpt>
      <trkpt lat="44.05338" lon="0.14375">
        <ele>139.4</ele>
        <time>2022-09-20T15:22:31Z</time>
      </trkpt>
      <trkpt lat="44.05342" lon="0.14377">
        <ele>140</ele>
        <time>2022-09-20T15:22:34Z</time>
      </trkpt>
      <trkpt lat="44.05347" lon="0.14379">
        <ele>140.6</ele>
        <time>2022-09-20T15:22:37Z</time>
      </trkpt>
      <trkpt lat="44.05351" lon="0.14383">
        <ele>141.3</ele>
        <time>2022-09-20T15:22:41Z</time>
      </trkpt>
      <trkpt lat="44.05355" lon="0.14386">
        <ele>141.8</ele>
        <time>2022-09-20T15:22:47Z</time>
      </trkpt>
      <trkpt lat="44.05359" lon="0.1439">
        <ele>141.5</ele>
        <time>2022-09-20T15:22:51Z</time>
      </trkpt>
      <trkpt lat="44.05363" lon="0.14394">
        <ele>141.6</ele>
        <time>2022-09-20T15:22:55Z</time>
      </trkpt>
      <trkpt lat="44.05367" lon="0.14399">
        <ele>141.4</ele>
        <time>2022-09-20T15:22:59Z</time>
      </trkpt>
      <trkpt lat="44.0537" lon="0.14404">
        <ele>141.4</ele>
        <time>2022-09-20T15:23:03Z</time>
      </trkpt>
      <trkpt lat="44.05374" lon="0.14408">
        <ele>142</ele>
        <time>2022-09-20T15:23:07Z</time>
      </trkpt>
      <trkpt lat="44.05378" lon="0.14412">
        <ele>142.3</ele>
        <time>2022-09-20T15:23:12Z</time>
      </trkpt>
      <trkpt lat="44.05382" lon="0.14417">
        <ele>142.2</ele>
        <time>2022-09-20T15:23:16Z</time>
      </trkpt>
      <trkpt lat="44.05385" lon="0.14421">
        <ele>141.8</ele>
        <time>2022-09-20T15:23:20Z</time>
      </trkpt>
      <trkpt lat="44.0539" lon="0.14425">
        <ele>141.6</ele>
        <time>2022-09-20T15:23:25Z</time>
      </trkpt>
      <trkpt lat="44.05394" lon="0.14428">
        <ele>141.6</ele>
        <time>2022-09-20T15:23:29Z</time>
      </trkpt>
      <trkpt lat="44.05399" lon="0.14432">
        <ele>141.3</ele>
        <time>2022-09-20T15:23:34Z</time>
      </trkpt>
      <trkpt lat="44.05403" lon="0.14437">
        <ele>140.9</ele>
        <time>2022-09-20T15:23:39Z</time>
      </trkpt>
      <trkpt lat="44.05407" lon="0.14441">
        <ele>140.9</ele>
        <time>2022-09-20T15:23:44Z</time>
      </trkpt>
      <trkpt lat="44.05411" lon="0.14445">
        <ele>141.6</ele>
        <time>2022-09-20T15:23:48Z</time>
      </trkpt>
      <trkpt lat="44.05416" lon="0.14449">
        <ele>142.1</ele>
        <time>2022-09-20T15:23:52Z</time>
      </trkpt>
      <trkpt lat="44.05419" lon="0.14454">
        <ele>142.7</ele>
        <time>2022-09-20T15:23:56Z</time>
      </trkpt>
      <trkpt lat="44.05423" lon="0.14459">
        <ele>143.3</ele>
        <time>2022-09-20T15:24:01Z</time>
      </trkpt>
      <trkpt lat="44.05426" lon="0.14464">
        <ele>143.5</ele>
        <time>2022-09-20T15:24:07Z</time>
      </trkpt>
      <trkpt lat="44.0543" lon="0.14469">
        <ele>143.6</ele>
        <time>2022-09-20T15:24:12Z</time>
      </trkpt>
      <trkpt lat="44.05434" lon="0.14474">
        <ele>144.3</ele>
        <time>2022-09-20T15:24:17Z</time>
      </trkpt>
      <trkpt lat="44.05438" lon="0.14478">
        <ele>144.7</ele>
        <time>2022-09-20T15:24:21Z</time>
      </trkpt>
      <trkpt lat="44.05442" lon="0.14483">
        <ele>144.6</ele>
        <time>2022-09-20T15:24:27Z</time>
      </trkpt>
      <trkpt lat="44.05446" lon="0.14488">
        <ele>144.1</ele>
        <time>2022-09-20T15:24:32Z</time>
      </trkpt>
      <trkpt lat="44.05448" lon="0.14493">
        <ele>143.8</ele>
        <time>2022-09-20T15:24:36Z</time>
      </trkpt>
      <trkpt lat="44.05452" lon="0.14498">
        <ele>143.8</ele>
        <time>2022-09-20T15:24:40Z</time>
      </trkpt>
      <trkpt lat="44.05456" lon="0.14503">
        <ele>144.6</ele>
        <time>2022-09-20T15:24:45Z</time>
      </trkpt>
      <trkpt lat="44.05458" lon="0.14508">
        <ele>145.5</ele>
        <time>2022-09-20T15:24:51Z</time>
      </trkpt>
      <trkpt lat="44.0546" lon="0.14514">
        <ele>146.3</ele>
        <time>2022-09-20T15:24:55Z</time>
      </trkpt>
      <trkpt lat="44.05459" lon="0.14521">
        <ele>147.2</ele>
        <time>2022-09-20T15:24:59Z</time>
      </trkpt>
      <trkpt lat="44.05457" lon="0.14528">
        <ele>147.8</ele>
        <time>2022-09-20T15:25:03Z</time>
      </trkpt>
      <trkpt lat="44.05454" lon="0.14534">
        <ele>148.4</ele>
        <time>2022-09-20T15:25:07Z</time>
      </trkpt>
      <trkpt lat="44.05451" lon="0.14539">
        <ele>148.4</ele>
        <time>2022-09-20T15:25:12Z</time>
      </trkpt>
      <trkpt lat="44.05449" lon="0.14545">
        <ele>148.2</ele>
        <time>2022-09-20T15:25:15Z</time>
      </trkpt>
      <trkpt lat="44.05446" lon="0.14551">
        <ele>147.6</ele>
        <time>2022-09-20T15:25:19Z</time>
      </trkpt>
      <trkpt lat="44.05444" lon="0.14558">
        <ele>147.2</ele>
        <time>2022-09-20T15:25:23Z</time>
      </trkpt>
      <trkpt lat="44.05442" lon="0.14564">
        <ele>146.8</ele>
        <time>2022-09-20T15:25:27Z</time>
      </trkpt>
      <trkpt lat="44.0544" lon="0.1457">
        <ele>146.5</ele>
        <time>2022-09-20T15:25:31Z</time>
      </trkpt>
      <trkpt lat="44.05437" lon="0.14575">
        <ele>146</ele>
        <time>2022-09-20T15:25:36Z</time>
      </trkpt>
      <trkpt lat="44.05435" lon="0.1458">
        <ele>145.3</ele>
        <time>2022-09-20T15:25:39Z</time>
      </trkpt>
      <trkpt lat="44.05431" lon="0.14586">
        <ele>144.7</ele>
        <time>2022-09-20T15:25:43Z</time>
      </trkpt>
      <trkpt lat="44.05428" lon="0.14593">
        <ele>144.5</ele>
        <time>2022-09-20T15:25:46Z</time>
      </trkpt>
      <trkpt lat="44.05425" lon="0.14598">
        <ele>144.5</ele>
        <time>2022-09-20T15:25:49Z</time>
      </trkpt>
      <trkpt lat="44.05422" lon="0.14604">
        <ele>144.7</ele>
        <time>2022-09-20T15:25:53Z</time>
      </trkpt>
      <trkpt lat="44.0542" lon="0.1461">
        <ele>145.1</ele>
        <time>2022-09-20T15:25:57Z</time>
      </trkpt>
      <trkpt lat="44.05417" lon="0.14616">
        <ele>145.8</ele>
        <time>2022-09-20T15:26:01Z</time>
      </trkpt>
      <trkpt lat="44.05416" lon="0.14622">
        <ele>146.6</ele>
        <time>2022-09-20T15:26:05Z</time>
      </trkpt>
      <trkpt lat="44.05413" lon="0.14628">
        <ele>146.9</ele>
        <time>2022-09-20T15:26:09Z</time>
      </trkpt>
      <trkpt lat="44.0541" lon="0.14635">
        <ele>146.6</ele>
        <time>2022-09-20T15:26:13Z</time>
      </trkpt>
      <trkpt lat="44.05408" lon="0.14641">
        <ele>146.4</ele>
        <time>2022-09-20T15:26:17Z</time>
      </trkpt>
      <trkpt lat="44.05405" lon="0.14647">
        <ele>146.2</ele>
        <time>2022-09-20T15:26:21Z</time>
      </trkpt>
      <trkpt lat="44.054" lon="0.14656">
        <ele>146</ele>
        <time>2022-09-20T15:26:31Z</time>
      </trkpt>
      <trkpt lat="44.05398" lon="0.14664">
        <ele>145.9</ele>
        <time>2022-09-20T15:26:34Z</time>
      </trkpt>
      <trkpt lat="44.05397" lon="0.14671">
        <ele>145.8</ele>
        <time>2022-09-20T15:26:40Z</time>
      </trkpt>
      <trkpt lat="44.05399" lon="0.14677">
        <ele>145.2</ele>
        <time>2022-09-20T15:26:47Z</time>
      </trkpt>
      <trkpt lat="44.05403" lon="0.14684">
        <ele>144.8</ele>
        <time>2022-09-20T15:26:50Z</time>
      </trkpt>
      <trkpt lat="44.05405" lon="0.14693">
        <ele>143.9</ele>
        <time>2022-09-20T15:26:58Z</time>
      </trkpt>
      <trkpt lat="44.05407" lon="0.147">
        <ele>143.6</ele>
        <time>2022-09-20T15:27:01Z</time>
      </trkpt>
      <trkpt lat="44.05409" lon="0.1471">
        <ele>143</ele>
        <time>2022-09-20T15:27:10Z</time>
      </trkpt>
      <trkpt lat="44.0541" lon="0.14718">
        <ele>142.8</ele>
        <time>2022-09-20T15:27:13Z</time>
      </trkpt>
      <trkpt lat="44.05411" lon="0.14728">
        <ele>143.2</ele>
        <time>2022-09-20T15:27:19Z</time>
      </trkpt>
      <trkpt lat="44.05411" lon="0.14741">
        <ele>146.3</ele>
        <time>2022-09-20T15:27:22Z</time>
      </trkpt>
      <trkpt lat="44.05412" lon="0.14748">
        <ele>148.6</ele>
        <time>2022-09-20T15:27:25Z</time>
      </trkpt>
      <trkpt lat="44.05412" lon="0.14756">
        <ele>150.2</ele>
        <time>2022-09-20T15:27:29Z</time>
      </trkpt>
      <trkpt lat="44.05411" lon="0.14768">
        <ele>151.4</ele>
        <time>2022-09-20T15:27:40Z</time>
      </trkpt>
      <trkpt lat="44.0541" lon="0.14776">
        <ele>150.9</ele>
        <time>2022-09-20T15:27:43Z</time>
      </trkpt>
      <trkpt lat="44.0541" lon="0.14782">
        <ele>150.2</ele>
        <time>2022-09-20T15:27:46Z</time>
      </trkpt>
      <trkpt lat="44.05409" lon="0.14789">
        <ele>149.6</ele>
        <time>2022-09-20T15:27:50Z</time>
      </trkpt>
      <trkpt lat="44.05409" lon="0.14799">
        <ele>149</ele>
        <time>2022-09-20T15:28:00Z</time>
      </trkpt>
      <trkpt lat="44.05408" lon="0.14808">
        <ele>148.9</ele>
        <time>2022-09-20T15:28:03Z</time>
      </trkpt>
      <trkpt lat="44.05407" lon="0.14818">
        <ele>148.9</ele>
        <time>2022-09-20T15:28:11Z</time>
      </trkpt>
      <trkpt lat="44.05406" lon="0.14827">
        <ele>149.2</ele>
        <time>2022-09-20T15:28:14Z</time>
      </trkpt>
      <trkpt lat="44.05406" lon="0.14837">
        <ele>149.8</ele>
        <time>2022-09-20T15:28:22Z</time>
      </trkpt>
      <trkpt lat="44.05404" lon="0.14846">
        <ele>149.9</ele>
        <time>2022-09-20T15:28:25Z</time>
      </trkpt>
      <trkpt lat="44.05403" lon="0.14853">
        <ele>149.7</ele>
        <time>2022-09-20T15:28:28Z</time>
      </trkpt>
      <trkpt lat="44.05403" lon="0.1486">
        <ele>149.3</ele>
        <time>2022-09-20T15:28:33Z</time>
      </trkpt>
      <trkpt lat="44.05402" lon="0.14868">
        <ele>149.2</ele>
        <time>2022-09-20T15:28:36Z</time>
      </trkpt>
      <trkpt lat="44.05401" lon="0.14878">
        <ele>148.5</ele>
        <time>2022-09-20T15:28:43Z</time>
      </trkpt>
      <trkpt lat="44.05401" lon="0.14885">
        <ele>148</ele>
        <time>2022-09-20T15:28:46Z</time>
      </trkpt>
      <trkpt lat="44.054" lon="0.14894">
        <ele>147.6</ele>
        <time>2022-09-20T15:28:54Z</time>
      </trkpt>
      <trkpt lat="44.05399" lon="0.14903">
        <ele>148.2</ele>
        <time>2022-09-20T15:28:57Z</time>
      </trkpt>
      <trkpt lat="44.05399" lon="0.14912">
        <ele>148.8</ele>
        <time>2022-09-20T15:29:04Z</time>
      </trkpt>
      <trkpt lat="44.05399" lon="0.1492">
        <ele>148.9</ele>
        <time>2022-09-20T15:29:07Z</time>
      </trkpt>
      <trkpt lat="44.05399" lon="0.14927">
        <ele>149</ele>
        <time>2022-09-20T15:29:10Z</time>
      </trkpt>
      <trkpt lat="44.05399" lon="0.14934">
        <ele>149.3</ele>
        <time>2022-09-20T15:29:15Z</time>
      </trkpt>
      <trkpt lat="44.05398" lon="0.14943">
        <ele>149.7</ele>
        <time>2022-09-20T15:29:20Z</time>
      </trkpt>
      <trkpt lat="44.05397" lon="0.14949">
        <ele>150.2</ele>
        <time>2022-09-20T15:29:25Z</time>
      </trkpt>
      <trkpt lat="44.05396" lon="0.14957">
        <ele>150.2</ele>
        <time>2022-09-20T15:29:33Z</time>
      </trkpt>
      <trkpt lat="44.05396" lon="0.14965">
        <ele>150</ele>
        <time>2022-09-20T15:29:36Z</time>
      </trkpt>
      <trkpt lat="44.05396" lon="0.14974">
        <ele>149.7</ele>
        <time>2022-09-20T15:29:40Z</time>
      </trkpt>
      <trkpt lat="44.05397" lon="0.14983">
        <ele>149.5</ele>
        <time>2022-09-20T15:29:43Z</time>
      </trkpt>
      <trkpt lat="44.05397" lon="0.1499">
        <ele>149.7</ele>
        <time>2022-09-20T15:29:47Z</time>
      </trkpt>
      <trkpt lat="44.05396" lon="0.14998">
        <ele>149.6</ele>
        <time>2022-09-20T15:29:55Z</time>
      </trkpt>
      <trkpt lat="44.05394" lon="0.15005">
        <ele>149.4</ele>
        <time>2022-09-20T15:29:58Z</time>
      </trkpt>
      <trkpt lat="44.05392" lon="0.15013">
        <ele>148.8</ele>
        <time>2022-09-20T15:30:07Z</time>
      </trkpt>
      <trkpt lat="44.05389" lon="0.15021">
        <ele>148.6</ele>
        <time>2022-09-20T15:30:10Z</time>
      </trkpt>
      <trkpt lat="44.05387" lon="0.15031">
        <ele>148.9</ele>
        <time>2022-09-20T15:30:16Z</time>
      </trkpt>
      <trkpt lat="44.05385" lon="0.1504">
        <ele>149.5</ele>
        <time>2022-09-20T15:30:19Z</time>
      </trkpt>
      <trkpt lat="44.0538" lon="0.15045">
        <ele>150.4</ele>
        <time>2022-09-20T15:30:31Z</time>
      </trkpt>
      <trkpt lat="44.05375" lon="0.15045">
        <ele>150.1</ele>
        <time>2022-09-20T15:30:34Z</time>
      </trkpt>
      <trkpt lat="44.05368" lon="0.15042">
        <ele>149.7</ele>
        <time>2022-09-20T15:30:42Z</time>
      </trkpt>
      <trkpt lat="44.05363" lon="0.1504">
        <ele>149.5</ele>
        <time>2022-09-20T15:30:45Z</time>
      </trkpt>
      <trkpt lat="44.05357" lon="0.15037">
        <ele>149.4</ele>
        <time>2022-09-20T15:30:48Z</time>
      </trkpt>
      <trkpt lat="44.05351" lon="0.15034">
        <ele>149.1</ele>
        <time>2022-09-20T15:30:52Z</time>
      </trkpt>
      <trkpt lat="44.05346" lon="0.15032">
        <ele>149</ele>
        <time>2022-09-20T15:30:55Z</time>
      </trkpt>
      <trkpt lat="44.05342" lon="0.1503">
        <ele>149</ele>
        <time>2022-09-20T15:30:58Z</time>
      </trkpt>
      <trkpt lat="44.05337" lon="0.15027">
        <ele>149.2</ele>
        <time>2022-09-20T15:31:02Z</time>
      </trkpt>
      <trkpt lat="44.05332" lon="0.15025">
        <ele>149.6</ele>
        <time>2022-09-20T15:31:06Z</time>
      </trkpt>
      <trkpt lat="44.05328" lon="0.15023">
        <ele>149.9</ele>
        <time>2022-09-20T15:31:11Z</time>
      </trkpt>
      <trkpt lat="44.05322" lon="0.15022">
        <ele>150.1</ele>
        <time>2022-09-20T15:31:16Z</time>
      </trkpt>
      <trkpt lat="44.05317" lon="0.1502">
        <ele>150.4</ele>
        <time>2022-09-20T15:31:19Z</time>
      </trkpt>
      <trkpt lat="44.05312" lon="0.15019">
        <ele>150.9</ele>
        <time>2022-09-20T15:31:22Z</time>
      </trkpt>
      <trkpt lat="44.05307" lon="0.15017">
        <ele>151.4</ele>
        <time>2022-09-20T15:31:26Z</time>
      </trkpt>
      <trkpt lat="44.05301" lon="0.15013">
        <ele>151.5</ele>
        <time>2022-09-20T15:31:30Z</time>
      </trkpt>
      <trkpt lat="44.05297" lon="0.1501">
        <ele>151.6</ele>
        <time>2022-09-20T15:31:34Z</time>
      </trkpt>
      <trkpt lat="44.05291" lon="0.15007">
        <ele>151.6</ele>
        <time>2022-09-20T15:31:38Z</time>
      </trkpt>
      <trkpt lat="44.05286" lon="0.15005">
        <ele>152.2</ele>
        <time>2022-09-20T15:31:42Z</time>
      </trkpt>
      <trkpt lat="44.05281" lon="0.15002">
        <ele>152.7</ele>
        <time>2022-09-20T15:31:45Z</time>
      </trkpt>
      <trkpt lat="44.05276" lon="0.15">
        <ele>153.3</ele>
        <time>2022-09-20T15:31:49Z</time>
      </trkpt>
      <trkpt lat="44.05271" lon="0.14998">
        <ele>154</ele>
        <time>2022-09-20T15:31:53Z</time>
      </trkpt>
      <trkpt lat="44.05264" lon="0.14996">
        <ele>154.9</ele>
        <time>2022-09-20T15:32:02Z</time>
      </trkpt>
      <trkpt lat="44.05259" lon="0.14993">
        <ele>154.8</ele>
        <time>2022-09-20T15:32:05Z</time>
      </trkpt>
      <trkpt lat="44.05254" lon="0.1499">
        <ele>154.5</ele>
        <time>2022-09-20T15:32:09Z</time>
      </trkpt>
      <trkpt lat="44.05248" lon="0.14988">
        <ele>153.5</ele>
        <time>2022-09-20T15:32:13Z</time>
      </trkpt>
      <trkpt lat="44.05243" lon="0.14986">
        <ele>152.7</ele>
        <time>2022-09-20T15:32:17Z</time>
      </trkpt>
      <trkpt lat="44.05238" lon="0.14985">
        <ele>152.2</ele>
        <time>2022-09-20T15:32:21Z</time>
      </trkpt>
      <trkpt lat="44.05233" lon="0.14982">
        <ele>151.7</ele>
        <time>2022-09-20T15:32:25Z</time>
      </trkpt>
      <trkpt lat="44.05228" lon="0.1498">
        <ele>151.1</ele>
        <time>2022-09-20T15:32:29Z</time>
      </trkpt>
      <trkpt lat="44.05223" lon="0.14977">
        <ele>150.9</ele>
        <time>2022-09-20T15:32:33Z</time>
      </trkpt>
      <trkpt lat="44.05218" lon="0.14974">
        <ele>150.4</ele>
        <time>2022-09-20T15:32:42Z</time>
      </trkpt>
      <trkpt lat="44.05213" lon="0.14971">
        <ele>150</ele>
        <time>2022-09-20T15:32:45Z</time>
      </trkpt>
      <trkpt lat="44.05208" lon="0.14969">
        <ele>149.7</ele>
        <time>2022-09-20T15:32:49Z</time>
      </trkpt>
      <trkpt lat="44.05204" lon="0.14967">
        <ele>149.5</ele>
        <time>2022-09-20T15:32:52Z</time>
      </trkpt>
      <trkpt lat="44.05197" lon="0.14965">
        <ele>148.1</ele>
        <time>2022-09-20T15:33:12Z</time>
      </trkpt>
      <trkpt lat="44.05192" lon="0.14964">
        <ele>147.4</ele>
        <time>2022-09-20T15:33:15Z</time>
      </trkpt>
      <trkpt lat="44.05186" lon="0.14961">
        <ele>146.1</ele>
        <time>2022-09-20T15:33:25Z</time>
      </trkpt>
      <trkpt lat="44.05181" lon="0.14958">
        <ele>145.9</ele>
        <time>2022-09-20T15:33:28Z</time>
      </trkpt>
      <trkpt lat="44.05176" lon="0.14952">
        <ele>145.1</ele>
        <time>2022-09-20T15:33:39Z</time>
      </trkpt>
      <trkpt lat="44.05173" lon="0.14946">
        <ele>144.7</ele>
        <time>2022-09-20T15:33:43Z</time>
      </trkpt>
      <trkpt lat="44.05172" lon="0.14938">
        <ele>143.9</ele>
        <time>2022-09-20T15:33:54Z</time>
      </trkpt>
      <trkpt lat="44.05173" lon="0.14929">
        <ele>143.6</ele>
        <time>2022-09-20T15:33:57Z</time>
      </trkpt>
      <trkpt lat="44.05174" lon="0.1492">
        <ele>142.9</ele>
        <time>2022-09-20T15:34:05Z</time>
      </trkpt>
      <trkpt lat="44.05175" lon="0.14912">
        <ele>142.7</ele>
        <time>2022-09-20T15:34:08Z</time>
      </trkpt>
      <trkpt lat="44.05176" lon="0.14902">
        <ele>142.3</ele>
        <time>2022-09-20T15:34:15Z</time>
      </trkpt>
      <trkpt lat="44.05177" lon="0.14893">
        <ele>142.2</ele>
        <time>2022-09-20T15:34:18Z</time>
      </trkpt>
      <trkpt lat="44.05177" lon="0.14882">
        <ele>141.8</ele>
        <time>2022-09-20T15:34:28Z</time>
      </trkpt>
      <trkpt lat="44.05178" lon="0.14872">
        <ele>141.4</ele>
        <time>2022-09-20T15:34:31Z</time>
      </trkpt>
      <trkpt lat="44.05174" lon="0.14865">
        <ele>140.3</ele>
        <time>2022-09-20T15:34:45Z</time>
      </trkpt>
      <trkpt lat="44.05167" lon="0.14861">
        <ele>139.8</ele>
        <time>2022-09-20T15:34:48Z</time>
      </trkpt>
      <trkpt lat="44.05162" lon="0.14859">
        <ele>139.6</ele>
        <time>2022-09-20T15:34:52Z</time>
      </trkpt>
      <trkpt lat="44.05157" lon="0.14856">
        <ele>139.4</ele>
        <time>2022-09-20T15:35:01Z</time>
      </trkpt>
      <trkpt lat="44.05152" lon="0.14855">
        <ele>139.4</ele>
        <time>2022-09-20T15:35:04Z</time>
      </trkpt>
      <trkpt lat="44.05145" lon="0.14853">
        <ele>139.3</ele>
        <time>2022-09-20T15:35:14Z</time>
      </trkpt>
      <trkpt lat="44.0514" lon="0.14851">
        <ele>139.3</ele>
        <time>2022-09-20T15:35:17Z</time>
      </trkpt>
      <trkpt lat="44.05133" lon="0.14848">
        <ele>139.2</ele>
        <time>2022-09-20T15:35:25Z</time>
      </trkpt>
      <trkpt lat="44.05128" lon="0.14846">
        <ele>139.3</ele>
        <time>2022-09-20T15:35:28Z</time>
      </trkpt>
      <trkpt lat="44.0512" lon="0.14844">
        <ele>139.6</ele>
        <time>2022-09-20T15:35:35Z</time>
      </trkpt>
      <trkpt lat="44.05115" lon="0.14843">
        <ele>139.8</ele>
        <time>2022-09-20T15:35:38Z</time>
      </trkpt>
      <trkpt lat="44.05108" lon="0.14842">
        <ele>140.5</ele>
        <time>2022-09-20T15:35:46Z</time>
      </trkpt>
      <trkpt lat="44.05102" lon="0.1484">
        <ele>140.6</ele>
        <time>2022-09-20T15:35:49Z</time>
      </trkpt>
      <trkpt lat="44.05096" lon="0.14839">
        <ele>140.7</ele>
        <time>2022-09-20T15:35:52Z</time>
      </trkpt>
      <trkpt lat="44.05089" lon="0.14838">
        <ele>141</ele>
        <time>2022-09-20T15:36:03Z</time>
      </trkpt>
      <trkpt lat="44.05084" lon="0.14837">
        <ele>141.1</ele>
        <time>2022-09-20T15:36:06Z</time>
      </trkpt>
      <trkpt lat="44.05077" lon="0.14837">
        <ele>141.2</ele>
        <time>2022-09-20T15:36:16Z</time>
      </trkpt>
      <trkpt lat="44.05071" lon="0.14837">
        <ele>141.1</ele>
        <time>2022-09-20T15:36:19Z</time>
      </trkpt>
      <trkpt lat="44.05064" lon="0.14837">
        <ele>140.7</ele>
        <time>2022-09-20T15:36:28Z</time>
      </trkpt>
      <trkpt lat="44.05059" lon="0.14837">
        <ele>140.5</ele>
        <time>2022-09-20T15:36:31Z</time>
      </trkpt>
      <trkpt lat="44.05052" lon="0.14838">
        <ele>139.7</ele>
        <time>2022-09-20T15:36:43Z</time>
      </trkpt>
      <trkpt lat="44.05046" lon="0.14837">
        <ele>139.2</ele>
        <time>2022-09-20T15:36:46Z</time>
      </trkpt>
      <trkpt lat="44.05038" lon="0.14836">
        <ele>138.2</ele>
        <time>2022-09-20T15:36:49Z</time>
      </trkpt>
      <trkpt lat="44.05029" lon="0.14835">
        <ele>136.5</ele>
        <time>2022-09-20T15:36:58Z</time>
      </trkpt>
      <trkpt lat="44.05021" lon="0.14834">
        <ele>135.8</ele>
        <time>2022-09-20T15:37:01Z</time>
      </trkpt>
      <trkpt lat="44.05012" lon="0.14834">
        <ele>134.7</ele>
        <time>2022-09-20T15:37:09Z</time>
      </trkpt>
      <trkpt lat="44.05005" lon="0.14834">
        <ele>134.4</ele>
        <time>2022-09-20T15:37:12Z</time>
      </trkpt>
      <trkpt lat="44.04998" lon="0.14835">
        <ele>133.6</ele>
        <time>2022-09-20T15:37:21Z</time>
      </trkpt>
      <trkpt lat="44.04993" lon="0.14835">
        <ele>133.1</ele>
        <time>2022-09-20T15:37:24Z</time>
      </trkpt>
      <trkpt lat="44.04987" lon="0.14835">
        <ele>132.2</ele>
        <time>2022-09-20T15:37:32Z</time>
      </trkpt>
      <trkpt lat="44.04979" lon="0.14835">
        <ele>131.7</ele>
        <time>2022-09-20T15:37:35Z</time>
      </trkpt>
      <trkpt lat="44.04974" lon="0.14834">
        <ele>131</ele>
        <time>2022-09-20T15:37:38Z</time>
      </trkpt>
      <trkpt lat="44.04969" lon="0.14832">
        <ele>130.4</ele>
        <time>2022-09-20T15:37:41Z</time>
      </trkpt>
      <trkpt lat="44.04964" lon="0.14831">
        <ele>130.1</ele>
        <time>2022-09-20T15:37:45Z</time>
      </trkpt>
      <trkpt lat="44.04959" lon="0.1483">
        <ele>130.3</ele>
        <time>2022-09-20T15:37:49Z</time>
      </trkpt>
      <trkpt lat="44.04954" lon="0.14829">
        <ele>130.7</ele>
        <time>2022-09-20T15:37:53Z</time>
      </trkpt>
      <trkpt lat="44.04949" lon="0.14828">
        <ele>130.7</ele>
        <time>2022-09-20T15:37:58Z</time>
      </trkpt>
      <trkpt lat="44.04944" lon="0.14827">
        <ele>130.3</ele>
        <time>2022-09-20T15:38:01Z</time>
      </trkpt>
      <trkpt lat="44.04939" lon="0.14827">
        <ele>129.5</ele>
        <time>2022-09-20T15:38:05Z</time>
      </trkpt>
      <trkpt lat="44.04934" lon="0.14827">
        <ele>128.9</ele>
        <time>2022-09-20T15:38:09Z</time>
      </trkpt>
      <trkpt lat="44.04928" lon="0.14825">
        <ele>128.5</ele>
        <time>2022-09-20T15:38:14Z</time>
      </trkpt>
      <trkpt lat="44.0492" lon="0.14825">
        <ele>128.6</ele>
        <time>2022-09-20T15:38:24Z</time>
      </trkpt>
      <trkpt lat="44.04914" lon="0.14825">
        <ele>128.7</ele>
        <time>2022-09-20T15:38:27Z</time>
      </trkpt>
      <trkpt lat="44.04909" lon="0.14825">
        <ele>128.7</ele>
        <time>2022-09-20T15:38:30Z</time>
      </trkpt>
      <trkpt lat="44.04905" lon="0.14823">
        <ele>128.7</ele>
        <time>2022-09-20T15:38:35Z</time>
      </trkpt>
      <trkpt lat="44.049" lon="0.14821">
        <ele>128.9</ele>
        <time>2022-09-20T15:38:39Z</time>
      </trkpt>
      <trkpt lat="44.04893" lon="0.14818">
        <ele>128.7</ele>
        <time>2022-09-20T15:38:42Z</time>
      </trkpt>
      <trkpt lat="44.04889" lon="0.14815">
        <ele>128.5</ele>
        <time>2022-09-20T15:38:45Z</time>
      </trkpt>
      <trkpt lat="44.04881" lon="0.14813">
        <ele>128.2</ele>
        <time>2022-09-20T15:39:01Z</time>
      </trkpt>
      <trkpt lat="44.04876" lon="0.14812">
        <ele>128.2</ele>
        <time>2022-09-20T15:39:04Z</time>
      </trkpt>
      <trkpt lat="44.0487" lon="0.14808">
        <ele>128.1</ele>
        <time>2022-09-20T15:39:11Z</time>
      </trkpt>
      <trkpt lat="44.04865" lon="0.14803">
        <ele>127.9</ele>
        <time>2022-09-20T15:39:14Z</time>
      </trkpt>
      <trkpt lat="44.04861" lon="0.14795">
        <ele>127</ele>
        <time>2022-09-20T15:39:23Z</time>
      </trkpt>
      <trkpt lat="44.04859" lon="0.14789">
        <ele>126.3</ele>
        <time>2022-09-20T15:39:26Z</time>
      </trkpt>
      <trkpt lat="44.04857" lon="0.14779">
        <ele>124.9</ele>
        <time>2022-09-20T15:39:33Z</time>
      </trkpt>
      <trkpt lat="44.04856" lon="0.14769">
        <ele>124.9</ele>
        <time>2022-09-20T15:39:36Z</time>
      </trkpt>
      <trkpt lat="44.04855" lon="0.14761">
        <ele>125.4</ele>
        <time>2022-09-20T15:39:39Z</time>
      </trkpt>
      <trkpt lat="44.04853" lon="0.14755">
        <ele>126.2</ele>
        <time>2022-09-20T15:39:42Z</time>
      </trkpt>
      <trkpt lat="44.04854" lon="0.14745">
        <ele>127.1</ele>
        <time>2022-09-20T15:39:51Z</time>
      </trkpt>
      <trkpt lat="44.04853" lon="0.14737">
        <ele>127.8</ele>
        <time>2022-09-20T15:39:54Z</time>
      </trkpt>
      <trkpt lat="44.04853" lon="0.14728">
        <ele>128.3</ele>
        <time>2022-09-20T15:40:06Z</time>
      </trkpt>
      <trkpt lat="44.04853" lon="0.1472">
        <ele>128.2</ele>
        <time>2022-09-20T15:40:09Z</time>
      </trkpt>
      <trkpt lat="44.04854" lon="0.1471">
        <ele>127.6</ele>
        <time>2022-09-20T15:40:20Z</time>
      </trkpt>
      <trkpt lat="44.04855" lon="0.14703">
        <ele>127.3</ele>
        <time>2022-09-20T15:40:23Z</time>
      </trkpt>
      <trkpt lat="44.04855" lon="0.14694">
        <ele>126.4</ele>
        <time>2022-09-20T15:40:33Z</time>
      </trkpt>
      <trkpt lat="44.04856" lon="0.14687">
        <ele>125.8</ele>
        <time>2022-09-20T15:40:36Z</time>
      </trkpt>
      <trkpt lat="44.04855" lon="0.14677">
        <ele>124.2</ele>
        <time>2022-09-20T15:40:44Z</time>
      </trkpt>
      <trkpt lat="44.04854" lon="0.14668">
        <ele>123</ele>
        <time>2022-09-20T15:40:47Z</time>
      </trkpt>
      <trkpt lat="44.04852" lon="0.14659">
        <ele>122</ele>
        <time>2022-09-20T15:40:50Z</time>
      </trkpt>
      <trkpt lat="44.04851" lon="0.14653">
        <ele>121</ele>
        <time>2022-09-20T15:40:53Z</time>
      </trkpt>
      <trkpt lat="44.0485" lon="0.14643">
        <ele>119.6</ele>
        <time>2022-09-20T15:41:02Z</time>
      </trkpt>
      <trkpt lat="44.04848" lon="0.14635">
        <ele>119.6</ele>
        <time>2022-09-20T15:41:05Z</time>
      </trkpt>
      <trkpt lat="44.04845" lon="0.14625">
        <ele>119.7</ele>
        <time>2022-09-20T15:41:14Z</time>
      </trkpt>
      <trkpt lat="44.04842" lon="0.14616">
        <ele>119.2</ele>
        <time>2022-09-20T15:41:17Z</time>
      </trkpt>
      <trkpt lat="44.0484" lon="0.14606">
        <ele>118.1</ele>
        <time>2022-09-20T15:41:28Z</time>
      </trkpt>
      <trkpt lat="44.04838" lon="0.14598">
        <ele>117.6</ele>
        <time>2022-09-20T15:41:31Z</time>
      </trkpt>
      <trkpt lat="44.04838" lon="0.14588">
        <ele>116.8</ele>
        <time>2022-09-20T15:41:40Z</time>
      </trkpt>
      <trkpt lat="44.04838" lon="0.1458">
        <ele>116.6</ele>
        <time>2022-09-20T15:41:43Z</time>
      </trkpt>
      <trkpt lat="44.04838" lon="0.1457">
        <ele>115.9</ele>
        <time>2022-09-20T15:41:52Z</time>
      </trkpt>
      <trkpt lat="44.04838" lon="0.14562">
        <ele>115.5</ele>
        <time>2022-09-20T15:41:55Z</time>
      </trkpt>
      <trkpt lat="44.04838" lon="0.14553">
        <ele>114.3</ele>
        <time>2022-09-20T15:42:06Z</time>
      </trkpt>
      <trkpt lat="44.04837" lon="0.14546">
        <ele>113.9</ele>
        <time>2022-09-20T15:42:09Z</time>
      </trkpt>
      <trkpt lat="44.04837" lon="0.14536">
        <ele>112.9</ele>
        <time>2022-09-20T15:42:25Z</time>
      </trkpt>
      <trkpt lat="44.04835" lon="0.14528">
        <ele>112.7</ele>
        <time>2022-09-20T15:42:28Z</time>
      </trkpt>
      <trkpt lat="44.04831" lon="0.1452">
        <ele>112</ele>
        <time>2022-09-20T15:42:38Z</time>
      </trkpt>
      <trkpt lat="44.04826" lon="0.14516">
        <ele>111.6</ele>
        <time>2022-09-20T15:42:41Z</time>
      </trkpt>
      <trkpt lat="44.0482" lon="0.14513">
        <ele>111.2</ele>
        <time>2022-09-20T15:42:48Z</time>
      </trkpt>
      <trkpt lat="44.04815" lon="0.1451">
        <ele>111.5</ele>
        <time>2022-09-20T15:42:51Z</time>
      </trkpt>
      <trkpt lat="44.04807" lon="0.14509">
        <ele>112.3</ele>
        <time>2022-09-20T15:43:04Z</time>
      </trkpt>
      <trkpt lat="44.04802" lon="0.14508">
        <ele>112.8</ele>
        <time>2022-09-20T15:43:07Z</time>
      </trkpt>
      <trkpt lat="44.04795" lon="0.14508">
        <ele>114</ele>
        <time>2022-09-20T15:43:18Z</time>
      </trkpt>
      <trkpt lat="44.04788" lon="0.14508">
        <ele>114.7</ele>
        <time>2022-09-20T15:43:21Z</time>
      </trkpt>
      <trkpt lat="44.04782" lon="0.14508">
        <ele>115.5</ele>
        <time>2022-09-20T15:43:25Z</time>
      </trkpt>
      <trkpt lat="44.04777" lon="0.14507">
        <ele>116.1</ele>
        <time>2022-09-20T15:43:28Z</time>
      </trkpt>
      <trkpt lat="44.04772" lon="0.14506">
        <ele>116.7</ele>
        <time>2022-09-20T15:43:31Z</time>
      </trkpt>
      <trkpt lat="44.04764" lon="0.14506">
        <ele>118</ele>
        <time>2022-09-20T15:43:43Z</time>
      </trkpt>
      <trkpt lat="44.04759" lon="0.14505">
        <ele>118.3</ele>
        <time>2022-09-20T15:43:46Z</time>
      </trkpt>
      <trkpt lat="44.04752" lon="0.14505">
        <ele>118.8</ele>
        <time>2022-09-20T15:43:54Z</time>
      </trkpt>
      <trkpt lat="44.04746" lon="0.14504">
        <ele>118.8</ele>
        <time>2022-09-20T15:43:57Z</time>
      </trkpt>
      <trkpt lat="44.04738" lon="0.14503">
        <ele>118.8</ele>
        <time>2022-09-20T15:44:04Z</time>
      </trkpt>
      <trkpt lat="44.0473" lon="0.14502">
        <ele>118.8</ele>
        <time>2022-09-20T15:44:07Z</time>
      </trkpt>
      <trkpt lat="44.04725" lon="0.14502">
        <ele>119</ele>
        <time>2022-09-20T15:44:11Z</time>
      </trkpt>
      <trkpt lat="44.0472" lon="0.14499">
        <ele>119.4</ele>
        <time>2022-09-20T15:44:17Z</time>
      </trkpt>
      <trkpt lat="44.04715" lon="0.14497">
        <ele>119.8</ele>
        <time>2022-09-20T15:44:20Z</time>
      </trkpt>
      <trkpt lat="44.04708" lon="0.14496">
        <ele>120.5</ele>
        <time>2022-09-20T15:44:28Z</time>
      </trkpt>
      <trkpt lat="44.04701" lon="0.14495">
        <ele>121</ele>
        <time>2022-09-20T15:44:31Z</time>
      </trkpt>
      <trkpt lat="44.04696" lon="0.14493">
        <ele>121.8</ele>
        <time>2022-09-20T15:44:37Z</time>
      </trkpt>
      <trkpt lat="44.04692" lon="0.14489">
        <ele>122.4</ele>
        <time>2022-09-20T15:44:40Z</time>
      </trkpt>
      <trkpt lat="44.04686" lon="0.14483">
        <ele>123.4</ele>
        <time>2022-09-20T15:44:49Z</time>
      </trkpt>
      <trkpt lat="44.04681" lon="0.14478">
        <ele>124</ele>
        <time>2022-09-20T15:44:52Z</time>
      </trkpt>
      <trkpt lat="44.04674" lon="0.14473">
        <ele>124.9</ele>
        <time>2022-09-20T15:45:02Z</time>
      </trkpt>
      <trkpt lat="44.0467" lon="0.1447">
        <ele>124.8</ele>
        <time>2022-09-20T15:45:05Z</time>
      </trkpt>
      <trkpt lat="44.04664" lon="0.14467">
        <ele>124.1</ele>
        <time>2022-09-20T15:45:19Z</time>
      </trkpt>
      <trkpt lat="44.04659" lon="0.14462">
        <ele>123.7</ele>
        <time>2022-09-20T15:45:22Z</time>
      </trkpt>
      <trkpt lat="44.04655" lon="0.14458">
        <ele>123.2</ele>
        <time>2022-09-20T15:45:25Z</time>
      </trkpt>
      <trkpt lat="44.04651" lon="0.14451">
        <ele>122.3</ele>
        <time>2022-09-20T15:45:34Z</time>
      </trkpt>
      <trkpt lat="44.04646" lon="0.14445">
        <ele>122</ele>
        <time>2022-09-20T15:45:37Z</time>
      </trkpt>
      <trkpt lat="44.0464" lon="0.14435">
        <ele>120.9</ele>
        <time>2022-09-20T15:45:49Z</time>
      </trkpt>
      <trkpt lat="44.04637" lon="0.14429">
        <ele>120.3</ele>
        <time>2022-09-20T15:45:52Z</time>
      </trkpt>
      <trkpt lat="44.04633" lon="0.14423">
        <ele>119.8</ele>
        <time>2022-09-20T15:45:55Z</time>
      </trkpt>
      <trkpt lat="44.04629" lon="0.14418">
        <ele>119.3</ele>
        <time>2022-09-20T15:46:00Z</time>
      </trkpt>
      <trkpt lat="44.04625" lon="0.14413">
        <ele>118.7</ele>
        <time>2022-09-20T15:46:06Z</time>
      </trkpt>
      <trkpt lat="44.04621" lon="0.14407">
        <ele>118.4</ele>
        <time>2022-09-20T15:46:09Z</time>
      </trkpt>
      <trkpt lat="44.04617" lon="0.14402">
        <ele>118.4</ele>
        <time>2022-09-20T15:46:12Z</time>
      </trkpt>
      <trkpt lat="44.04611" lon="0.14398">
        <ele>118.3</ele>
        <time>2022-09-20T15:46:18Z</time>
      </trkpt>
      <trkpt lat="44.04607" lon="0.14395">
        <ele>118.4</ele>
        <time>2022-09-20T15:46:21Z</time>
      </trkpt>
      <trkpt lat="44.046" lon="0.1439">
        <ele>118.7</ele>
        <time>2022-09-20T15:46:29Z</time>
      </trkpt>
      <trkpt lat="44.04596" lon="0.14385">
        <ele>118.5</ele>
        <time>2022-09-20T15:46:32Z</time>
      </trkpt>
      <trkpt lat="44.04593" lon="0.14379">
        <ele>117.8</ele>
        <time>2022-09-20T15:46:36Z</time>
      </trkpt>
      <trkpt lat="44.04589" lon="0.14369">
        <ele>116.3</ele>
        <time>2022-09-20T15:46:49Z</time>
      </trkpt>
      <trkpt lat="44.04585" lon="0.14362">
        <ele>116</ele>
        <time>2022-09-20T15:46:52Z</time>
      </trkpt>
      <trkpt lat="44.04581" lon="0.14358">
        <ele>115.9</ele>
        <time>2022-09-20T15:46:55Z</time>
      </trkpt>
      <trkpt lat="44.04576" lon="0.14353">
        <ele>116</ele>
        <time>2022-09-20T15:47:00Z</time>
      </trkpt>
      <trkpt lat="44.04575" lon="0.14342">
        <ele>115.2</ele>
        <time>2022-09-20T15:47:15Z</time>
      </trkpt>
      <trkpt lat="44.04576" lon="0.14333">
        <ele>114.4</ele>
        <time>2022-09-20T15:47:18Z</time>
      </trkpt>
      <trkpt lat="44.04576" lon="0.14323">
        <ele>112.7</ele>
        <time>2022-09-20T15:47:28Z</time>
      </trkpt>
      <trkpt lat="44.04575" lon="0.14315">
        <ele>111.8</ele>
        <time>2022-09-20T15:47:31Z</time>
      </trkpt>
      <trkpt lat="44.04576" lon="0.14304">
        <ele>110</ele>
        <time>2022-09-20T15:47:45Z</time>
      </trkpt>
      <trkpt lat="44.04578" lon="0.14298">
        <ele>109.6</ele>
        <time>2022-09-20T15:47:48Z</time>
      </trkpt>
      <trkpt lat="44.04578" lon="0.14289">
        <ele>109.5</ele>
        <time>2022-09-20T15:51:16Z</time>
      </trkpt>
      <trkpt lat="44.04576" lon="0.14283">
        <ele>110.4</ele>
        <time>2022-09-20T15:51:20Z</time>
      </trkpt>
      <trkpt lat="44.04571" lon="0.14282">
        <ele>111.9</ele>
        <time>2022-09-20T15:51:35Z</time>
      </trkpt>
      <trkpt lat="44.04565" lon="0.14282">
        <ele>112.4</ele>
        <time>2022-09-20T15:51:38Z</time>
      </trkpt>
      <trkpt lat="44.04559" lon="0.14281">
        <ele>113.3</ele>
        <time>2022-09-20T15:51:42Z</time>
      </trkpt>
      <trkpt lat="44.04554" lon="0.14281">
        <ele>114.1</ele>
        <time>2022-09-20T15:51:47Z</time>
      </trkpt>
      <trkpt lat="44.04549" lon="0.1428">
        <ele>115</ele>
        <time>2022-09-20T15:51:52Z</time>
      </trkpt>
      <trkpt lat="44.04541" lon="0.14282">
        <ele>116.3</ele>
        <time>2022-09-20T15:52:03Z</time>
      </trkpt>
      <trkpt lat="44.04535" lon="0.14283">
        <ele>116.6</ele>
        <time>2022-09-20T15:52:06Z</time>
      </trkpt>
      <trkpt lat="44.04527" lon="0.14285">
        <ele>116.1</ele>
        <time>2022-09-20T15:52:19Z</time>
      </trkpt>
      <trkpt lat="44.04521" lon="0.14287">
        <ele>115.1</ele>
        <time>2022-09-20T15:52:22Z</time>
      </trkpt>
      <trkpt lat="44.04515" lon="0.14293">
        <ele>113</ele>
        <time>2022-09-20T15:52:31Z</time>
      </trkpt>
      <trkpt lat="44.0451" lon="0.14299">
        <ele>112.1</ele>
        <time>2022-09-20T15:52:34Z</time>
      </trkpt>
      <trkpt lat="44.04506" lon="0.14304">
        <ele>111.8</ele>
        <time>2022-09-20T15:52:37Z</time>
      </trkpt>
      <trkpt lat="44.04503" lon="0.14308">
        <ele>111.3</ele>
        <time>2022-09-20T15:52:40Z</time>
      </trkpt>
      <trkpt lat="44.04496" lon="0.14309">
        <ele>109.7</ele>
        <time>2022-09-20T15:52:51Z</time>
      </trkpt>
      <trkpt lat="44.04492" lon="0.14304">
        <ele>109</ele>
        <time>2022-09-20T15:52:54Z</time>
      </trkpt>
      <trkpt lat="44.04487" lon="0.14298">
        <ele>108.3</ele>
        <time>2022-09-20T15:53:03Z</time>
      </trkpt>
      <trkpt lat="44.04484" lon="0.14294">
        <ele>108.5</ele>
        <time>2022-09-20T15:53:06Z</time>
      </trkpt>
      <trkpt lat="44.04478" lon="0.14293">
        <ele>110.2</ele>
        <time>2022-09-20T15:54:38Z</time>
      </trkpt>
      <trkpt lat="44.04474" lon="0.14294">
        <ele>111.2</ele>
        <time>2022-09-20T15:54:43Z</time>
      </trkpt>
      <trkpt lat="44.04478" lon="0.14289">
        <ele>112</ele>
        <time>2022-09-20T15:57:23Z</time>
      </trkpt>
    </trkseg>
  </trk>
</gpx>